<?xml version="1.0" encoding="UTF-8" standalone="no" ?>
<gpx xmlns="http://www.topografix.com/GPX/1/1" xmlns:xsi="http://www.w3.org/2001/XMLSchema-instance" xsi:schemaLocation="http://www.topografix.com/GPX/1/1 http://www.topografix.com/GPX/1/1/gpx.xsd" version="1.1" creator="VisuGPX - https://www.visugpx.com">
  <metadata>
    <name>Chatonnay-Roybon</name>
    <desc><![CDATA[La Route des Mulets ®
Grand itinéraire EquiLiberté : du Poitou/Charente à l'Italie]]></desc>
  </metadata>
  <trk>
    <name><![CDATA[Trace reconnue chatonnay roybon]]></name>
    <trkseg>
      <trkpt lat="45.47929" lon="5.20253">
        <ele>527.90625</ele>
        <time>2019-03-29T10:32:50Z</time>
      </trkpt>
      <trkpt lat="45.47832" lon="5.20428">
        <ele>533.329163</ele>
      </trkpt>
      <trkpt lat="45.47708" lon="5.20514">
        <ele>537.342346</ele>
        <time>2019-03-29T10:33:09Z</time>
      </trkpt>
      <trkpt lat="45.47516" lon="5.20629">
        <ele>542.063782</ele>
        <time>2019-03-29T10:33:33Z</time>
      </trkpt>
      <trkpt lat="45.47326" lon="5.20676">
        <ele>540.420837</ele>
        <time>2019-03-29T10:33:58Z</time>
      </trkpt>
      <trkpt lat="45.47234" lon="5.20665">
        <ele>534.943726</ele>
        <time>2019-03-29T10:35:00Z</time>
      </trkpt>
      <trkpt lat="45.47014" lon="5.2075">
        <ele>542.849976</ele>
        <time>2019-03-29T10:35:25Z</time>
      </trkpt>
      <trkpt lat="45.46863" lon="5.20822">
        <ele>549.638245</ele>
        <time>2019-03-29T10:35:50Z</time>
      </trkpt>
      <trkpt lat="45.46694" lon="5.20922">
        <ele>560.11</ele>
        <time>2019-03-29T10:36:11Z</time>
      </trkpt>
      <trkpt lat="45.46691" lon="5.20918">
        <ele>560.11</ele>
        <time>2019-03-29T10:37:13Z</time>
      </trkpt>
      <trkpt lat="45.46689" lon="5.20921">
        <ele>560.11</ele>
        <time>2019-03-29T10:38:14Z</time>
      </trkpt>
      <trkpt lat="45.46688" lon="5.20923">
        <ele>560.11</ele>
        <time>2019-03-29T10:38:15Z</time>
      </trkpt>
      <trkpt lat="45.46687" lon="5.20923">
        <ele>560.11</ele>
        <time>2019-03-29T10:38:16Z</time>
      </trkpt>
      <trkpt lat="45.46686" lon="5.20924">
        <ele>560.11</ele>
        <time>2019-03-29T10:38:17Z</time>
      </trkpt>
      <trkpt lat="45.46685" lon="5.20925">
        <ele>560.11</ele>
        <time>2019-03-29T10:38:18Z</time>
      </trkpt>
      <trkpt lat="45.46631" lon="5.20964">
        <ele>557.7</ele>
        <time>2019-03-29T10:38:42Z</time>
      </trkpt>
      <trkpt lat="45.46587" lon="5.20985">
        <ele>554.82</ele>
        <time>2019-03-29T10:39:02Z</time>
      </trkpt>
      <trkpt lat="45.46521" lon="5.21017">
        <ele>553.38</ele>
        <time>2019-03-29T10:39:26Z</time>
      </trkpt>
      <trkpt lat="45.46497" lon="5.21017">
        <ele>551.45</ele>
        <time>2019-03-29T10:39:44Z</time>
      </trkpt>
      <trkpt lat="45.46461" lon="5.21003">
        <ele>550.49</ele>
        <time>2019-03-29T10:40:08Z</time>
      </trkpt>
      <trkpt lat="45.46424" lon="5.20993">
        <ele>549.53</ele>
        <time>2019-03-29T10:40:22Z</time>
      </trkpt>
      <trkpt lat="45.46407" lon="5.20987">
        <ele>549.05</ele>
        <time>2019-03-29T10:40:28Z</time>
      </trkpt>
      <trkpt lat="45.4639" lon="5.20973">
        <ele>549.05</ele>
        <time>2019-03-29T10:40:36Z</time>
      </trkpt>
      <trkpt lat="45.46355" lon="5.20942">
        <ele>548.57</ele>
        <time>2019-03-29T10:40:53Z</time>
      </trkpt>
      <trkpt lat="45.46337" lon="5.20929">
        <ele>549.05</ele>
        <time>2019-03-29T10:41:01Z</time>
      </trkpt>
      <trkpt lat="45.4632" lon="5.20927">
        <ele>548.09</ele>
        <time>2019-03-29T10:41:08Z</time>
      </trkpt>
      <trkpt lat="45.46305" lon="5.20956">
        <ele>545.69</ele>
        <time>2019-03-29T10:41:19Z</time>
      </trkpt>
      <trkpt lat="45.46307" lon="5.20982">
        <ele>544.72</ele>
        <time>2019-03-29T10:41:42Z</time>
      </trkpt>
      <trkpt lat="45.4628" lon="5.21003">
        <ele>541.84</ele>
        <time>2019-03-29T10:41:58Z</time>
      </trkpt>
      <trkpt lat="45.46273" lon="5.21">
        <ele>541.36</ele>
        <time>2019-03-29T10:42:01Z</time>
      </trkpt>
      <trkpt lat="45.46228" lon="5.20964">
        <ele>538.96</ele>
        <time>2019-03-29T10:42:24Z</time>
      </trkpt>
      <trkpt lat="45.46192" lon="5.20974">
        <ele>537.99</ele>
        <time>2019-03-29T10:42:39Z</time>
      </trkpt>
      <trkpt lat="45.4619" lon="5.20976">
        <ele>537.99</ele>
        <time>2019-03-29T10:43:06Z</time>
      </trkpt>
      <trkpt lat="45.46157" lon="5.20993">
        <ele>537.03</ele>
        <time>2019-03-29T10:43:44Z</time>
      </trkpt>
      <trkpt lat="45.46149" lon="5.20994">
        <ele>537.03</ele>
        <time>2019-03-29T10:43:47Z</time>
      </trkpt>
      <trkpt lat="45.46141" lon="5.20987">
        <ele>537.99</ele>
        <time>2019-03-29T10:43:51Z</time>
      </trkpt>
      <trkpt lat="45.46114" lon="5.20937">
        <ele>539.44</ele>
        <time>2019-03-29T10:44:09Z</time>
      </trkpt>
      <trkpt lat="45.4607" lon="5.20878">
        <ele>538.96</ele>
        <time>2019-03-29T10:44:27Z</time>
      </trkpt>
      <trkpt lat="45.4604" lon="5.20815">
        <ele>538.96</ele>
        <time>2019-03-29T10:44:46Z</time>
      </trkpt>
      <trkpt lat="45.46041" lon="5.20814">
        <ele>538.48</ele>
        <time>2019-03-29T10:45:01Z</time>
      </trkpt>
      <trkpt lat="45.4604" lon="5.2081">
        <ele>538.48</ele>
        <time>2019-03-29T10:45:03Z</time>
      </trkpt>
      <trkpt lat="45.46012" lon="5.20731">
        <ele>537.03</ele>
        <time>2019-03-29T10:45:21Z</time>
      </trkpt>
      <trkpt lat="45.46012" lon="5.20695">
        <ele>535.59</ele>
        <time>2019-03-29T10:45:27Z</time>
      </trkpt>
      <trkpt lat="45.46011" lon="5.20688">
        <ele>535.59</ele>
        <time>2019-03-29T10:45:28Z</time>
      </trkpt>
      <trkpt lat="45.46009" lon="5.20681">
        <ele>535.59</ele>
        <time>2019-03-29T10:45:29Z</time>
      </trkpt>
      <trkpt lat="45.46001" lon="5.20666">
        <ele>536.07</ele>
        <time>2019-03-29T10:45:32Z</time>
      </trkpt>
      <trkpt lat="45.45997" lon="5.20662">
        <ele>536.07</ele>
        <time>2019-03-29T10:45:33Z</time>
      </trkpt>
      <trkpt lat="45.45994" lon="5.2066">
        <ele>536.55</ele>
        <time>2019-03-29T10:45:34Z</time>
      </trkpt>
      <trkpt lat="45.45973" lon="5.20632">
        <ele>538.48</ele>
        <time>2019-03-29T10:45:42Z</time>
      </trkpt>
      <trkpt lat="45.45947" lon="5.2053">
        <ele>541.36</ele>
        <time>2019-03-29T10:46:04Z</time>
      </trkpt>
      <trkpt lat="45.45897" lon="5.2049">
        <ele>544.24</ele>
        <time>2019-03-29T10:46:24Z</time>
      </trkpt>
      <trkpt lat="45.45828" lon="5.20453">
        <ele>545.69</ele>
        <time>2019-03-29T10:46:47Z</time>
      </trkpt>
      <trkpt lat="45.45775" lon="5.20461">
        <ele>549.05</ele>
        <time>2019-03-29T10:47:03Z</time>
      </trkpt>
      <trkpt lat="45.45733" lon="5.20367">
        <ele>549.53</ele>
        <time>2019-03-29T10:47:23Z</time>
      </trkpt>
      <trkpt lat="45.45689" lon="5.2027">
        <ele>548.09</ele>
        <time>2019-03-29T10:47:41Z</time>
      </trkpt>
      <trkpt lat="45.45686" lon="5.20264">
        <ele>547.61</ele>
        <time>2019-03-29T10:47:42Z</time>
      </trkpt>
      <trkpt lat="45.45684" lon="5.20258">
        <ele>547.61</ele>
        <time>2019-03-29T10:47:43Z</time>
      </trkpt>
      <trkpt lat="45.45676" lon="5.20241">
        <ele>547.61</ele>
        <time>2019-03-29T10:47:46Z</time>
      </trkpt>
      <trkpt lat="45.45672" lon="5.20236">
        <ele>547.13</ele>
        <time>2019-03-29T10:47:47Z</time>
      </trkpt>
      <trkpt lat="45.45669" lon="5.20231">
        <ele>547.61</ele>
        <time>2019-03-29T10:47:48Z</time>
      </trkpt>
      <trkpt lat="45.45665" lon="5.20227">
        <ele>547.13</ele>
        <time>2019-03-29T10:47:49Z</time>
      </trkpt>
      <trkpt lat="45.45661" lon="5.20223">
        <ele>547.13</ele>
        <time>2019-03-29T10:47:50Z</time>
      </trkpt>
      <trkpt lat="45.45654" lon="5.20216">
        <ele>547.13</ele>
        <time>2019-03-29T10:47:52Z</time>
      </trkpt>
      <trkpt lat="45.4565" lon="5.20214">
        <ele>547.13</ele>
        <time>2019-03-29T10:47:53Z</time>
      </trkpt>
      <trkpt lat="45.45646" lon="5.20212">
        <ele>547.13</ele>
        <time>2019-03-29T10:47:54Z</time>
      </trkpt>
      <trkpt lat="45.45614" lon="5.20184">
        <ele>545.69</ele>
        <time>2019-03-29T10:48:06Z</time>
      </trkpt>
      <trkpt lat="45.45603" lon="5.20164">
        <ele>545.2</ele>
        <time>2019-03-29T10:48:10Z</time>
      </trkpt>
      <trkpt lat="45.45597" lon="5.20157">
        <ele>544.72</ele>
        <time>2019-03-29T10:48:12Z</time>
      </trkpt>
      <trkpt lat="45.45578" lon="5.20131">
        <ele>542.8</ele>
        <time>2019-03-29T10:48:18Z</time>
      </trkpt>
      <trkpt lat="45.45575" lon="5.20124">
        <ele>542.8</ele>
        <time>2019-03-29T10:48:19Z</time>
      </trkpt>
      <trkpt lat="45.45574" lon="5.20118">
        <ele>542.32</ele>
        <time>2019-03-29T10:48:20Z</time>
      </trkpt>
      <trkpt lat="45.45573" lon="5.20111">
        <ele>541.84</ele>
        <time>2019-03-29T10:48:21Z</time>
      </trkpt>
      <trkpt lat="45.45572" lon="5.20104">
        <ele>541.36</ele>
        <time>2019-03-29T10:48:22Z</time>
      </trkpt>
      <trkpt lat="45.45571" lon="5.20097">
        <ele>541.36</ele>
        <time>2019-03-29T10:48:23Z</time>
      </trkpt>
      <trkpt lat="45.45564" lon="5.2">
        <ele>537.99</ele>
        <time>2019-03-29T10:48:37Z</time>
      </trkpt>
      <trkpt lat="45.45562" lon="5.19965">
        <ele>537.99</ele>
        <time>2019-03-29T10:48:42Z</time>
      </trkpt>
      <trkpt lat="45.45552" lon="5.19875">
        <ele>536.55</ele>
        <time>2019-03-29T10:49:02Z</time>
      </trkpt>
      <trkpt lat="45.45543" lon="5.19811">
        <ele>536.07</ele>
        <time>2019-03-29T10:49:50Z</time>
      </trkpt>
      <trkpt lat="45.45539" lon="5.19779">
        <ele>535.59</ele>
        <time>2019-03-29T10:49:55Z</time>
      </trkpt>
      <trkpt lat="45.45541" lon="5.19746">
        <ele>535.59</ele>
        <time>2019-03-29T10:50:00Z</time>
      </trkpt>
      <trkpt lat="45.45542" lon="5.1974">
        <ele>535.11</ele>
        <time>2019-03-29T10:50:01Z</time>
      </trkpt>
      <trkpt lat="45.45544" lon="5.19734">
        <ele>535.11</ele>
        <time>2019-03-29T10:50:02Z</time>
      </trkpt>
      <trkpt lat="45.45585" lon="5.19605">
        <ele>535.59</ele>
        <time>2019-03-29T10:50:25Z</time>
      </trkpt>
      <trkpt lat="45.45589" lon="5.19579">
        <ele>534.15</ele>
        <time>2019-03-29T10:50:29Z</time>
      </trkpt>
      <trkpt lat="45.45589" lon="5.19572">
        <ele>534.15</ele>
        <time>2019-03-29T10:50:30Z</time>
      </trkpt>
      <trkpt lat="45.45588" lon="5.19566">
        <ele>534.15</ele>
        <time>2019-03-29T10:50:31Z</time>
      </trkpt>
      <trkpt lat="45.45587" lon="5.19559">
        <ele>534.15</ele>
        <time>2019-03-29T10:50:32Z</time>
      </trkpt>
      <trkpt lat="45.45586" lon="5.19552">
        <ele>533.67</ele>
        <time>2019-03-29T10:50:33Z</time>
      </trkpt>
      <trkpt lat="45.45585" lon="5.19546">
        <ele>534.15</ele>
        <time>2019-03-29T10:50:34Z</time>
      </trkpt>
      <trkpt lat="45.4558" lon="5.19527">
        <ele>533.19</ele>
        <time>2019-03-29T10:50:37Z</time>
      </trkpt>
      <trkpt lat="45.45578" lon="5.19521">
        <ele>533.67</ele>
        <time>2019-03-29T10:50:38Z</time>
      </trkpt>
      <trkpt lat="45.45531" lon="5.19415">
        <ele>533.19</ele>
        <time>2019-03-29T10:51:01Z</time>
      </trkpt>
      <trkpt lat="45.45508" lon="5.19293">
        <ele>529.34</ele>
        <time>2019-03-29T10:51:23Z</time>
      </trkpt>
      <trkpt lat="45.45508" lon="5.19245">
        <ele>526.46</ele>
        <time>2019-03-29T10:51:30Z</time>
      </trkpt>
      <trkpt lat="45.45506" lon="5.192">
        <ele>523.09</ele>
        <time>2019-03-29T10:51:37Z</time>
      </trkpt>
      <trkpt lat="45.45507" lon="5.19174">
        <ele>519.73</ele>
        <time>2019-03-29T10:51:41Z</time>
      </trkpt>
      <trkpt lat="45.45508" lon="5.19166">
        <ele>519.25</ele>
        <time>2019-03-29T10:51:42Z</time>
      </trkpt>
      <trkpt lat="45.45518" lon="5.19128">
        <ele>515.4</ele>
        <time>2019-03-29T10:51:47Z</time>
      </trkpt>
      <trkpt lat="45.45521" lon="5.19121">
        <ele>514.92</ele>
        <time>2019-03-29T10:51:48Z</time>
      </trkpt>
      <trkpt lat="45.45549" lon="5.19051">
        <ele>513</ele>
        <time>2019-03-29T10:52:01Z</time>
      </trkpt>
      <trkpt lat="45.45547" lon="5.19048">
        <ele>513</ele>
        <time>2019-03-29T10:52:02Z</time>
      </trkpt>
      <trkpt lat="45.45545" lon="5.19046">
        <ele>512.52</ele>
        <time>2019-03-29T10:52:03Z</time>
      </trkpt>
      <trkpt lat="45.45542" lon="5.19044">
        <ele>512.52</ele>
        <time>2019-03-29T10:52:04Z</time>
      </trkpt>
      <trkpt lat="45.45539" lon="5.19043">
        <ele>513</ele>
        <time>2019-03-29T10:52:05Z</time>
      </trkpt>
      <trkpt lat="45.45535" lon="5.19042">
        <ele>512.52</ele>
        <time>2019-03-29T10:52:06Z</time>
      </trkpt>
      <trkpt lat="45.45531" lon="5.19043">
        <ele>513</ele>
        <time>2019-03-29T10:52:07Z</time>
      </trkpt>
      <trkpt lat="45.45528" lon="5.19043">
        <ele>513</ele>
        <time>2019-03-29T10:52:08Z</time>
      </trkpt>
      <trkpt lat="45.45428" lon="5.19068">
        <ele>513</ele>
        <time>2019-03-29T10:52:34Z</time>
      </trkpt>
      <trkpt lat="45.45384" lon="5.19093">
        <ele>512.04</ele>
        <time>2019-03-29T10:52:45Z</time>
      </trkpt>
      <trkpt lat="45.4538" lon="5.19097">
        <ele>512.52</ele>
        <time>2019-03-29T10:52:46Z</time>
      </trkpt>
      <trkpt lat="45.45365" lon="5.19118">
        <ele>513.96</ele>
        <time>2019-03-29T10:52:51Z</time>
      </trkpt>
      <trkpt lat="45.45329" lon="5.1918">
        <ele>517.33</ele>
        <time>2019-03-29T10:53:05Z</time>
      </trkpt>
      <trkpt lat="45.45246" lon="5.19305">
        <ele>518.77</ele>
        <time>2019-03-29T10:53:37Z</time>
      </trkpt>
      <trkpt lat="45.452" lon="5.19425">
        <ele>519.73</ele>
        <time>2019-03-29T10:54:05Z</time>
      </trkpt>
      <trkpt lat="45.45198" lon="5.19426">
        <ele>519.73</ele>
        <time>2019-03-29T10:54:06Z</time>
      </trkpt>
      <trkpt lat="45.45195" lon="5.19426">
        <ele>519.25</ele>
        <time>2019-03-29T10:54:07Z</time>
      </trkpt>
      <trkpt lat="45.45192" lon="5.19425">
        <ele>518.29</ele>
        <time>2019-03-29T10:54:08Z</time>
      </trkpt>
      <trkpt lat="45.45187" lon="5.19424">
        <ele>518.29</ele>
        <time>2019-03-29T10:54:09Z</time>
      </trkpt>
      <trkpt lat="45.45172" lon="5.1942">
        <ele>516.37</ele>
        <time>2019-03-29T10:54:12Z</time>
      </trkpt>
      <trkpt lat="45.4514" lon="5.1941">
        <ele>513</ele>
        <time>2019-03-29T10:54:17Z</time>
      </trkpt>
      <trkpt lat="45.45099" lon="5.19399">
        <ele>510.6</ele>
        <time>2019-03-29T10:54:23Z</time>
      </trkpt>
      <trkpt lat="45.45035" lon="5.19383">
        <ele>511.08</ele>
        <time>2019-03-29T10:54:35Z</time>
      </trkpt>
      <trkpt lat="45.45031" lon="5.19384">
        <ele>511.08</ele>
        <time>2019-03-29T10:54:36Z</time>
      </trkpt>
      <trkpt lat="45.45027" lon="5.19385">
        <ele>511.08</ele>
        <time>2019-03-29T10:54:37Z</time>
      </trkpt>
      <trkpt lat="45.45022" lon="5.19387">
        <ele>511.08</ele>
        <time>2019-03-29T10:54:38Z</time>
      </trkpt>
      <trkpt lat="45.45018" lon="5.1939">
        <ele>511.08</ele>
        <time>2019-03-29T10:54:39Z</time>
      </trkpt>
      <trkpt lat="45.45014" lon="5.19393">
        <ele>511.08</ele>
        <time>2019-03-29T10:54:40Z</time>
      </trkpt>
      <trkpt lat="45.4501" lon="5.19398">
        <ele>510.6</ele>
        <time>2019-03-29T10:54:41Z</time>
      </trkpt>
      <trkpt lat="45.45007" lon="5.19402">
        <ele>510.6</ele>
        <time>2019-03-29T10:54:42Z</time>
      </trkpt>
      <trkpt lat="45.44922" lon="5.19497">
        <ele>507.71</ele>
        <time>2019-03-29T10:55:04Z</time>
      </trkpt>
      <trkpt lat="45.44905" lon="5.19512">
        <ele>504.35</ele>
        <time>2019-03-29T10:55:08Z</time>
      </trkpt>
      <trkpt lat="45.449" lon="5.19517">
        <ele>504.35</ele>
        <time>2019-03-29T10:55:09Z</time>
      </trkpt>
      <trkpt lat="45.4489" lon="5.19525">
        <ele>503.39</ele>
        <time>2019-03-29T10:55:11Z</time>
      </trkpt>
      <trkpt lat="45.44884" lon="5.19529">
        <ele>502.91</ele>
        <time>2019-03-29T10:55:12Z</time>
      </trkpt>
      <trkpt lat="45.44879" lon="5.1953">
        <ele>502.91</ele>
        <time>2019-03-29T10:55:13Z</time>
      </trkpt>
      <trkpt lat="45.44873" lon="5.19529">
        <ele>502.91</ele>
        <time>2019-03-29T10:55:14Z</time>
      </trkpt>
      <trkpt lat="45.44868" lon="5.19526">
        <ele>502.91</ele>
        <time>2019-03-29T10:55:15Z</time>
      </trkpt>
      <trkpt lat="45.44864" lon="5.19522">
        <ele>502.91</ele>
        <time>2019-03-29T10:55:16Z</time>
      </trkpt>
      <trkpt lat="45.44861" lon="5.19517">
        <ele>502.91</ele>
        <time>2019-03-29T10:55:17Z</time>
      </trkpt>
      <trkpt lat="45.44858" lon="5.19511">
        <ele>502.91</ele>
        <time>2019-03-29T10:55:18Z</time>
      </trkpt>
      <trkpt lat="45.44855" lon="5.19505">
        <ele>502.91</ele>
        <time>2019-03-29T10:55:19Z</time>
      </trkpt>
      <trkpt lat="45.44836" lon="5.19456">
        <ele>504.35</ele>
        <time>2019-03-29T10:55:27Z</time>
      </trkpt>
      <trkpt lat="45.44833" lon="5.19451">
        <ele>504.35</ele>
        <time>2019-03-29T10:55:28Z</time>
      </trkpt>
      <trkpt lat="45.4483" lon="5.19447">
        <ele>504.83</ele>
        <time>2019-03-29T10:55:29Z</time>
      </trkpt>
      <trkpt lat="45.44827" lon="5.19444">
        <ele>504.83</ele>
        <time>2019-03-29T10:55:30Z</time>
      </trkpt>
      <trkpt lat="45.44823" lon="5.19442">
        <ele>505.31</ele>
        <time>2019-03-29T10:55:31Z</time>
      </trkpt>
      <trkpt lat="45.44811" lon="5.19432">
        <ele>506.75</ele>
        <time>2019-03-29T10:55:35Z</time>
      </trkpt>
      <trkpt lat="45.44783" lon="5.19404">
        <ele>510.12</ele>
        <time>2019-03-29T10:55:49Z</time>
      </trkpt>
      <trkpt lat="45.44781" lon="5.19403">
        <ele>510.12</ele>
        <time>2019-03-29T10:55:50Z</time>
      </trkpt>
      <trkpt lat="45.44778" lon="5.19402">
        <ele>510.6</ele>
        <time>2019-03-29T10:55:51Z</time>
      </trkpt>
      <trkpt lat="45.44775" lon="5.19402">
        <ele>510.6</ele>
        <time>2019-03-29T10:55:52Z</time>
      </trkpt>
      <trkpt lat="45.44757" lon="5.19387">
        <ele>509.64</ele>
        <time>2019-03-29T10:56:02Z</time>
      </trkpt>
      <trkpt lat="45.44757" lon="5.19384">
        <ele>509.64</ele>
        <time>2019-03-29T10:56:03Z</time>
      </trkpt>
      <trkpt lat="45.44758" lon="5.19381">
        <ele>509.64</ele>
        <time>2019-03-29T10:56:04Z</time>
      </trkpt>
      <trkpt lat="45.44757" lon="5.19378">
        <ele>510.12</ele>
        <time>2019-03-29T10:56:25Z</time>
      </trkpt>
      <trkpt lat="45.44757" lon="5.19379">
        <ele>510.12</ele>
        <time>2019-03-29T10:56:42Z</time>
      </trkpt>
      <trkpt lat="45.44753" lon="5.19381">
        <ele>510.12</ele>
        <time>2019-03-29T10:56:45Z</time>
      </trkpt>
      <trkpt lat="45.44742" lon="5.1938">
        <ele>510.6</ele>
        <time>2019-03-29T10:57:03Z</time>
      </trkpt>
      <trkpt lat="45.44702" lon="5.19368">
        <ele>511.56</ele>
        <time>2019-03-29T10:57:20Z</time>
      </trkpt>
      <trkpt lat="45.44626" lon="5.19411">
        <ele>512.52</ele>
        <time>2019-03-29T10:57:44Z</time>
      </trkpt>
      <trkpt lat="45.44621" lon="5.19416">
        <ele>513</ele>
        <time>2019-03-29T10:57:46Z</time>
      </trkpt>
      <trkpt lat="45.44618" lon="5.19417">
        <ele>513</ele>
        <time>2019-03-29T10:57:47Z</time>
      </trkpt>
      <trkpt lat="45.44615" lon="5.19416">
        <ele>512.52</ele>
        <time>2019-03-29T10:57:48Z</time>
      </trkpt>
      <trkpt lat="45.44611" lon="5.19414">
        <ele>512.04</ele>
        <time>2019-03-29T10:57:49Z</time>
      </trkpt>
      <trkpt lat="45.44607" lon="5.19412">
        <ele>512.52</ele>
        <time>2019-03-29T10:57:50Z</time>
      </trkpt>
      <trkpt lat="45.44604" lon="5.19409">
        <ele>512.52</ele>
        <time>2019-03-29T10:57:51Z</time>
      </trkpt>
      <trkpt lat="45.446" lon="5.19405">
        <ele>512.04</ele>
        <time>2019-03-29T10:57:52Z</time>
      </trkpt>
      <trkpt lat="45.44556" lon="5.19326">
        <ele>513.96</ele>
        <time>2019-03-29T10:58:11Z</time>
      </trkpt>
      <trkpt lat="45.44549" lon="5.19267">
        <ele>517.33</ele>
        <time>2019-03-29T10:58:24Z</time>
      </trkpt>
      <trkpt lat="45.44557" lon="5.19217">
        <ele>518.29</ele>
        <time>2019-03-29T10:58:38Z</time>
      </trkpt>
      <trkpt lat="45.44577" lon="5.19144">
        <ele>518.29</ele>
        <time>2019-03-29T10:58:56Z</time>
      </trkpt>
      <trkpt lat="45.44577" lon="5.19142">
        <ele>518.29</ele>
        <time>2019-03-29T10:58:57Z</time>
      </trkpt>
      <trkpt lat="45.44576" lon="5.19131">
        <ele>518.77</ele>
        <time>2019-03-29T10:59:20Z</time>
      </trkpt>
      <trkpt lat="45.44575" lon="5.19129">
        <ele>517.81</ele>
        <time>2019-03-29T10:59:39Z</time>
      </trkpt>
      <trkpt lat="45.44556" lon="5.1908">
        <ele>517.81</ele>
        <time>2019-03-29T10:59:56Z</time>
      </trkpt>
      <trkpt lat="45.44525" lon="5.19072">
        <ele>520.69</ele>
        <time>2019-03-29T11:00:05Z</time>
      </trkpt>
      <trkpt lat="45.44503" lon="5.19066">
        <ele>524.06</ele>
        <time>2019-03-29T11:00:12Z</time>
      </trkpt>
      <trkpt lat="45.4449" lon="5.19063">
        <ele>526.46</ele>
        <time>2019-03-29T11:00:16Z</time>
      </trkpt>
      <trkpt lat="45.44475" lon="5.19061">
        <ele>528.38</ele>
        <time>2019-03-29T11:00:21Z</time>
      </trkpt>
      <trkpt lat="45.44455" lon="5.1906">
        <ele>531.27</ele>
        <time>2019-03-29T11:00:28Z</time>
      </trkpt>
      <trkpt lat="45.44436" lon="5.19069">
        <ele>534.63</ele>
        <time>2019-03-29T11:00:35Z</time>
      </trkpt>
      <trkpt lat="45.44393" lon="5.19088">
        <ele>537.51</ele>
        <time>2019-03-29T11:00:52Z</time>
      </trkpt>
      <trkpt lat="45.44324" lon="5.19121">
        <ele>539.92</ele>
        <time>2019-03-29T11:01:19Z</time>
      </trkpt>
      <trkpt lat="45.44247" lon="5.1919">
        <ele>540.88</ele>
        <time>2019-03-29T11:01:50Z</time>
      </trkpt>
      <trkpt lat="45.44199" lon="5.19268">
        <ele>541.84</ele>
        <time>2019-03-29T11:02:18Z</time>
      </trkpt>
      <trkpt lat="45.44125" lon="5.19323">
        <ele>538.96</ele>
        <time>2019-03-29T11:02:42Z</time>
      </trkpt>
      <trkpt lat="45.44077" lon="5.19364">
        <ele>535.59</ele>
        <time>2019-03-29T11:03:05Z</time>
      </trkpt>
      <trkpt lat="45.44076" lon="5.19366">
        <ele>535.59</ele>
        <time>2019-03-29T11:03:06Z</time>
      </trkpt>
      <trkpt lat="45.44071" lon="5.19373">
        <ele>535.11</ele>
        <time>2019-03-29T11:03:34Z</time>
      </trkpt>
      <trkpt lat="45.44045" lon="5.19383">
        <ele>532.23</ele>
        <time>2019-03-29T11:04:03Z</time>
      </trkpt>
      <trkpt lat="45.44026" lon="5.19382">
        <ele>531.27</ele>
        <time>2019-03-29T11:04:09Z</time>
      </trkpt>
      <trkpt lat="45.43994" lon="5.19372">
        <ele>527.9</ele>
        <time>2019-03-29T11:04:20Z</time>
      </trkpt>
      <trkpt lat="45.43978" lon="5.19374">
        <ele>526.94</ele>
        <time>2019-03-29T11:04:26Z</time>
      </trkpt>
      <trkpt lat="45.43975" lon="5.19376">
        <ele>526.46</ele>
        <time>2019-03-29T11:04:27Z</time>
      </trkpt>
      <trkpt lat="45.43939" lon="5.19381">
        <ele>523.09</ele>
        <time>2019-03-29T11:04:39Z</time>
      </trkpt>
      <trkpt lat="45.43898" lon="5.19388">
        <ele>519.73</ele>
        <time>2019-03-29T11:04:55Z</time>
      </trkpt>
      <trkpt lat="45.43863" lon="5.1939">
        <ele>516.37</ele>
        <time>2019-03-29T11:05:09Z</time>
      </trkpt>
      <trkpt lat="45.43835" lon="5.19405">
        <ele>513</ele>
        <time>2019-03-29T11:05:22Z</time>
      </trkpt>
      <trkpt lat="45.43832" lon="5.19408">
        <ele>512.52</ele>
        <time>2019-03-29T11:05:42Z</time>
      </trkpt>
      <trkpt lat="45.43831" lon="5.1941">
        <ele>513</ele>
        <time>2019-03-29T11:05:43Z</time>
      </trkpt>
      <trkpt lat="45.43829" lon="5.19411">
        <ele>512.52</ele>
        <time>2019-03-29T11:05:44Z</time>
      </trkpt>
      <trkpt lat="45.43792" lon="5.19419">
        <ele>509.16</ele>
        <time>2019-03-29T11:05:59Z</time>
      </trkpt>
      <trkpt lat="45.43745" lon="5.19422">
        <ele>505.79</ele>
        <time>2019-03-29T11:06:14Z</time>
      </trkpt>
      <trkpt lat="45.43714" lon="5.1942">
        <ele>502.43</ele>
        <time>2019-03-29T11:06:26Z</time>
      </trkpt>
      <trkpt lat="45.4368" lon="5.1942">
        <ele>499.06</ele>
        <time>2019-03-29T11:06:37Z</time>
      </trkpt>
      <trkpt lat="45.43645" lon="5.19432">
        <ele>496.18</ele>
        <time>2019-03-29T11:06:50Z</time>
      </trkpt>
      <trkpt lat="45.43602" lon="5.19441">
        <ele>492.81</ele>
        <time>2019-03-29T11:07:05Z</time>
      </trkpt>
      <trkpt lat="45.43564" lon="5.19441">
        <ele>489.45</ele>
        <time>2019-03-29T11:07:17Z</time>
      </trkpt>
      <trkpt lat="45.43524" lon="5.19432">
        <ele>486.56</ele>
        <time>2019-03-29T11:07:33Z</time>
      </trkpt>
      <trkpt lat="45.43477" lon="5.19399">
        <ele>482.506317</ele>
        <time>2019-03-29T11:08:15Z</time>
      </trkpt>
      <trkpt lat="45.43411" lon="5.19415">
        <ele>475.724884</ele>
        <time>2019-03-29T11:08:18Z</time>
      </trkpt>
      <trkpt lat="45.43353" lon="5.19479">
        <ele>469.141754</ele>
        <time>2019-03-29T11:08:19Z</time>
      </trkpt>
      <trkpt lat="45.43293" lon="5.19556">
        <ele>458.772919</ele>
        <time>2019-03-29T11:08:20Z</time>
      </trkpt>
      <trkpt lat="45.43272" lon="5.19472">
        <ele>454.335297</ele>
        <time>2019-03-29T11:08:43Z</time>
      </trkpt>
      <trkpt lat="45.43292" lon="5.19392">
        <ele>451.48</ele>
        <time>2019-03-29T11:11:53Z</time>
      </trkpt>
      <trkpt lat="45.43289" lon="5.19389">
        <ele>451.48</ele>
        <time>2019-03-29T11:11:54Z</time>
      </trkpt>
      <trkpt lat="45.43285" lon="5.19389">
        <ele>451</ele>
        <time>2019-03-29T11:11:55Z</time>
      </trkpt>
      <trkpt lat="45.43281" lon="5.1939">
        <ele>451.48</ele>
        <time>2019-03-29T11:11:56Z</time>
      </trkpt>
      <trkpt lat="45.43277" lon="5.19392">
        <ele>451</ele>
        <time>2019-03-29T11:11:57Z</time>
      </trkpt>
      <trkpt lat="45.43274" lon="5.19395">
        <ele>450.52</ele>
        <time>2019-03-29T11:11:58Z</time>
      </trkpt>
      <trkpt lat="45.4327" lon="5.19399">
        <ele>450.03</ele>
        <time>2019-03-29T11:11:59Z</time>
      </trkpt>
      <trkpt lat="45.43262" lon="5.19406">
        <ele>449.07</ele>
        <time>2019-03-29T11:12:01Z</time>
      </trkpt>
      <trkpt lat="45.43247" lon="5.1942">
        <ele>447.63</ele>
        <time>2019-03-29T11:12:05Z</time>
      </trkpt>
      <trkpt lat="45.43243" lon="5.19422">
        <ele>447.15</ele>
        <time>2019-03-29T11:12:06Z</time>
      </trkpt>
      <trkpt lat="45.43239" lon="5.19424">
        <ele>446.67</ele>
        <time>2019-03-29T11:12:07Z</time>
      </trkpt>
      <trkpt lat="45.43235" lon="5.19426">
        <ele>446.67</ele>
        <time>2019-03-29T11:12:08Z</time>
      </trkpt>
      <trkpt lat="45.4323" lon="5.19426">
        <ele>446.67</ele>
        <time>2019-03-29T11:12:09Z</time>
      </trkpt>
      <trkpt lat="45.43226" lon="5.19426">
        <ele>446.19</ele>
        <time>2019-03-29T11:12:10Z</time>
      </trkpt>
      <trkpt lat="45.43221" lon="5.19425">
        <ele>445.71</ele>
        <time>2019-03-29T11:12:11Z</time>
      </trkpt>
      <trkpt lat="45.43178" lon="5.19423">
        <ele>442.82</ele>
        <time>2019-03-29T11:12:21Z</time>
      </trkpt>
      <trkpt lat="45.43137" lon="5.19428">
        <ele>439.46</ele>
        <time>2019-03-29T11:12:32Z</time>
      </trkpt>
      <trkpt lat="45.43102" lon="5.19441">
        <ele>436.1</ele>
        <time>2019-03-29T11:12:42Z</time>
      </trkpt>
      <trkpt lat="45.43085" lon="5.19447">
        <ele>434.17</ele>
        <time>2019-03-29T11:13:00Z</time>
      </trkpt>
      <trkpt lat="45.43041" lon="5.19461">
        <ele>431.29</ele>
        <time>2019-03-29T11:13:39Z</time>
      </trkpt>
      <trkpt lat="45.42987" lon="5.19485">
        <ele>427.92</ele>
        <time>2019-03-29T11:13:50Z</time>
      </trkpt>
      <trkpt lat="45.4293" lon="5.19514">
        <ele>424.56</ele>
        <time>2019-03-29T11:14:00Z</time>
      </trkpt>
      <trkpt lat="45.42869" lon="5.19548">
        <ele>421.68</ele>
        <time>2019-03-29T11:14:10Z</time>
      </trkpt>
      <trkpt lat="45.42807" lon="5.19579">
        <ele>418.79</ele>
        <time>2019-03-29T11:14:21Z</time>
      </trkpt>
      <trkpt lat="45.42734" lon="5.19596">
        <ele>415.43</ele>
        <time>2019-03-29T11:14:36Z</time>
      </trkpt>
      <trkpt lat="45.42636" lon="5.19616">
        <ele>412.54</ele>
        <time>2019-03-29T11:14:54Z</time>
      </trkpt>
      <trkpt lat="45.42544" lon="5.19607">
        <ele>411.1</ele>
        <time>2019-03-29T11:15:13Z</time>
      </trkpt>
      <trkpt lat="45.42529" lon="5.19596">
        <ele>409.66</ele>
        <time>2019-03-29T11:15:20Z</time>
      </trkpt>
      <trkpt lat="45.42528" lon="5.19592">
        <ele>410.14</ele>
        <time>2019-03-29T11:15:21Z</time>
      </trkpt>
      <trkpt lat="45.42528" lon="5.19587">
        <ele>409.66</ele>
        <time>2019-03-29T11:15:22Z</time>
      </trkpt>
      <trkpt lat="45.42528" lon="5.19581">
        <ele>410.14</ele>
        <time>2019-03-29T11:15:23Z</time>
      </trkpt>
      <trkpt lat="45.42528" lon="5.19576">
        <ele>410.14</ele>
        <time>2019-03-29T11:15:24Z</time>
      </trkpt>
      <trkpt lat="45.42536" lon="5.19402">
        <ele>408.7</ele>
        <time>2019-03-29T11:15:48Z</time>
      </trkpt>
      <trkpt lat="45.42541" lon="5.19185">
        <ele>406.29</ele>
        <time>2019-03-29T11:16:19Z</time>
      </trkpt>
      <trkpt lat="45.42539" lon="5.19155">
        <ele>405.81</ele>
        <time>2019-03-29T11:16:28Z</time>
      </trkpt>
      <trkpt lat="45.42537" lon="5.19154">
        <ele>406.29</ele>
        <time>2019-03-29T11:16:42Z</time>
      </trkpt>
      <trkpt lat="45.42537" lon="5.19154">
        <ele>404.37</ele>
        <time>2019-03-29T11:44:33Z</time>
      </trkpt>
      <trkpt lat="45.42537" lon="5.19154">
        <ele>407.74</ele>
        <time>2019-03-29T11:44:36Z</time>
      </trkpt>
      <trkpt lat="45.42537" lon="5.19154">
        <ele>405.33</ele>
        <time>2019-03-29T11:44:37Z</time>
      </trkpt>
      <trkpt lat="45.4253" lon="5.19149">
        <ele>405.33</ele>
        <time>2019-03-29T11:44:42Z</time>
      </trkpt>
      <trkpt lat="45.42537" lon="5.19158">
        <ele>408.7</ele>
        <time>2019-03-29T11:45:14Z</time>
      </trkpt>
      <trkpt lat="45.42537" lon="5.19158">
        <ele>411.1</ele>
        <time>2019-03-29T11:45:22Z</time>
      </trkpt>
      <trkpt lat="45.42537" lon="5.19158">
        <ele>414.47</ele>
        <time>2019-03-29T11:45:39Z</time>
      </trkpt>
      <trkpt lat="45.42537" lon="5.19158">
        <ele>417.83</ele>
        <time>2019-03-29T11:46:12Z</time>
      </trkpt>
      <trkpt lat="45.42541" lon="5.19167">
        <ele>418.31</ele>
        <time>2019-03-29T11:46:36Z</time>
      </trkpt>
      <trkpt lat="45.42541" lon="5.19168">
        <ele>418.79</ele>
        <time>2019-03-29T11:46:38Z</time>
      </trkpt>
      <trkpt lat="45.42538" lon="5.1926">
        <ele>419.27</ele>
        <time>2019-03-29T11:47:00Z</time>
      </trkpt>
      <trkpt lat="45.42533" lon="5.19469">
        <ele>421.19</ele>
        <time>2019-03-29T11:47:37Z</time>
      </trkpt>
      <trkpt lat="45.42521" lon="5.19669">
        <ele>421.68</ele>
        <time>2019-03-29T11:48:11Z</time>
      </trkpt>
      <trkpt lat="45.4252" lon="5.19675">
        <ele>421.19</ele>
        <time>2019-03-29T11:48:12Z</time>
      </trkpt>
      <trkpt lat="45.42518" lon="5.1968">
        <ele>421.19</ele>
        <time>2019-03-29T11:48:13Z</time>
      </trkpt>
      <trkpt lat="45.42514" lon="5.19685">
        <ele>421.19</ele>
        <time>2019-03-29T11:48:14Z</time>
      </trkpt>
      <trkpt lat="45.4251" lon="5.19688">
        <ele>421.19</ele>
        <time>2019-03-29T11:48:15Z</time>
      </trkpt>
      <trkpt lat="45.42506" lon="5.19691">
        <ele>421.19</ele>
        <time>2019-03-29T11:48:16Z</time>
      </trkpt>
      <trkpt lat="45.42502" lon="5.19693">
        <ele>420.23</ele>
        <time>2019-03-29T11:48:17Z</time>
      </trkpt>
      <trkpt lat="45.42497" lon="5.19694">
        <ele>420.71</ele>
        <time>2019-03-29T11:48:18Z</time>
      </trkpt>
      <trkpt lat="45.42382" lon="5.19739">
        <ele>420.23</ele>
        <time>2019-03-29T11:48:44Z</time>
      </trkpt>
      <trkpt lat="45.42378" lon="5.19742">
        <ele>420.23</ele>
        <time>2019-03-29T11:48:45Z</time>
      </trkpt>
      <trkpt lat="45.42289" lon="5.19865">
        <ele>420.71</ele>
        <time>2019-03-29T11:49:15Z</time>
      </trkpt>
      <trkpt lat="45.42206" lon="5.19936">
        <ele>422.64</ele>
        <time>2019-03-29T11:49:40Z</time>
      </trkpt>
      <trkpt lat="45.42154" lon="5.20013">
        <ele>423.12</ele>
        <time>2019-03-29T11:50:04Z</time>
      </trkpt>
      <trkpt lat="45.42173" lon="5.20178">
        <ele>424.56</ele>
        <time>2019-03-29T11:50:36Z</time>
      </trkpt>
      <trkpt lat="45.42192" lon="5.20355">
        <ele>425.04</ele>
        <time>2019-03-29T11:51:09Z</time>
      </trkpt>
      <trkpt lat="45.42211" lon="5.20528">
        <ele>424.56</ele>
        <time>2019-03-29T11:51:44Z</time>
      </trkpt>
      <trkpt lat="45.4221" lon="5.2053">
        <ele>424.56</ele>
        <time>2019-03-29T11:51:45Z</time>
      </trkpt>
      <trkpt lat="45.42209" lon="5.2053">
        <ele>424.56</ele>
        <time>2019-03-29T11:51:46Z</time>
      </trkpt>
      <trkpt lat="45.42207" lon="5.20531">
        <ele>425.04</ele>
        <time>2019-03-29T11:51:47Z</time>
      </trkpt>
      <trkpt lat="45.42205" lon="5.20531">
        <ele>424.56</ele>
        <time>2019-03-29T11:51:48Z</time>
      </trkpt>
      <trkpt lat="45.42203" lon="5.20531">
        <ele>425.04</ele>
        <time>2019-03-29T11:51:49Z</time>
      </trkpt>
      <trkpt lat="45.42212" lon="5.20871">
        <ele>419.581268</ele>
        <time>2019-03-29T11:52:14Z</time>
      </trkpt>
      <trkpt lat="45.42054" lon="5.20921">
        <ele>415.512878</ele>
        <time>2019-03-29T11:52:46Z</time>
      </trkpt>
      <trkpt lat="45.4189" lon="5.21069">
        <ele>413.23996</ele>
        <time>2019-03-29T11:53:18Z</time>
      </trkpt>
      <trkpt lat="45.41749" lon="5.21199">
        <ele>410.072906</ele>
        <time>2019-03-29T11:53:52Z</time>
      </trkpt>
      <trkpt lat="45.41527" lon="5.21357">
        <ele>404.222931</ele>
        <time>2019-03-29T11:54:27Z</time>
      </trkpt>
      <trkpt lat="45.41329" lon="5.21337">
        <ele>398.822906</ele>
        <time>2019-03-29T11:54:54Z</time>
      </trkpt>
      <trkpt lat="45.41177" lon="5.21297">
        <ele>397</ele>
        <time>2019-03-29T11:55:01Z</time>
      </trkpt>
      <trkpt lat="45.4105" lon="5.2137">
        <ele>396.21933</ele>
        <time>2019-03-29T11:55:13Z</time>
      </trkpt>
      <trkpt lat="45.40917" lon="5.21339">
        <ele>402.93</ele>
        <time>2019-03-29T11:59:07Z</time>
      </trkpt>
      <trkpt lat="45.40913" lon="5.21339">
        <ele>402.45</ele>
        <time>2019-03-29T11:59:08Z</time>
      </trkpt>
      <trkpt lat="45.4076" lon="5.21333">
        <ele>401.97</ele>
        <time>2019-03-29T11:59:42Z</time>
      </trkpt>
      <trkpt lat="45.40589" lon="5.21329">
        <ele>400.05</ele>
        <time>2019-03-29T12:00:20Z</time>
      </trkpt>
      <trkpt lat="45.40527" lon="5.21329">
        <ele>401.01</ele>
        <time>2019-03-29T12:00:34Z</time>
      </trkpt>
      <trkpt lat="45.40478" lon="5.21278">
        <ele>399.57</ele>
        <time>2019-03-29T12:00:50Z</time>
      </trkpt>
      <trkpt lat="45.40428" lon="5.21114">
        <ele>398.6</ele>
        <time>2019-03-29T12:01:20Z</time>
      </trkpt>
      <trkpt lat="45.40385" lon="5.20976">
        <ele>398.12</ele>
        <time>2019-03-29T12:01:47Z</time>
      </trkpt>
      <trkpt lat="45.40347" lon="5.20851">
        <ele>396.68</ele>
        <time>2019-03-29T12:02:13Z</time>
      </trkpt>
      <trkpt lat="45.40345" lon="5.20849">
        <ele>396.68</ele>
        <time>2019-03-29T12:02:14Z</time>
      </trkpt>
      <trkpt lat="45.40343" lon="5.20849">
        <ele>397.16</ele>
        <time>2019-03-29T12:02:15Z</time>
      </trkpt>
      <trkpt lat="45.4034" lon="5.20849">
        <ele>396.68</ele>
        <time>2019-03-29T12:02:16Z</time>
      </trkpt>
      <trkpt lat="45.40337" lon="5.2085">
        <ele>396.68</ele>
        <time>2019-03-29T12:02:17Z</time>
      </trkpt>
      <trkpt lat="45.40334" lon="5.20852">
        <ele>396.68</ele>
        <time>2019-03-29T12:02:18Z</time>
      </trkpt>
      <trkpt lat="45.40331" lon="5.20854">
        <ele>396.68</ele>
        <time>2019-03-29T12:02:19Z</time>
      </trkpt>
      <trkpt lat="45.40265" lon="5.20878">
        <ele>399.57</ele>
        <time>2019-03-29T12:02:38Z</time>
      </trkpt>
      <trkpt lat="45.40227" lon="5.20897">
        <ele>402.93</ele>
        <time>2019-03-29T12:02:50Z</time>
      </trkpt>
      <trkpt lat="45.40214" lon="5.20902">
        <ele>404.37</ele>
        <time>2019-03-29T12:02:54Z</time>
      </trkpt>
      <trkpt lat="45.40182" lon="5.20917">
        <ele>407.74</ele>
        <time>2019-03-29T12:03:05Z</time>
      </trkpt>
      <trkpt lat="45.4015" lon="5.20929">
        <ele>410.62</ele>
        <time>2019-03-29T12:03:15Z</time>
      </trkpt>
      <trkpt lat="45.40125" lon="5.2095">
        <ele>413.98</ele>
        <time>2019-03-29T12:03:27Z</time>
      </trkpt>
      <trkpt lat="45.40099" lon="5.20979">
        <ele>417.35</ele>
        <time>2019-03-29T12:03:42Z</time>
      </trkpt>
      <trkpt lat="45.40071" lon="5.21004">
        <ele>420.23</ele>
        <time>2019-03-29T12:03:54Z</time>
      </trkpt>
      <trkpt lat="45.4004" lon="5.21034">
        <ele>423.6</ele>
        <time>2019-03-29T12:04:05Z</time>
      </trkpt>
      <trkpt lat="45.40007" lon="5.21068">
        <ele>426.96</ele>
        <time>2019-03-29T12:04:18Z</time>
      </trkpt>
      <trkpt lat="45.40002" lon="5.21073">
        <ele>427.44</ele>
        <time>2019-03-29T12:04:20Z</time>
      </trkpt>
      <trkpt lat="45.3997" lon="5.21134">
        <ele>430.81</ele>
        <time>2019-03-29T12:04:38Z</time>
      </trkpt>
      <trkpt lat="45.39944" lon="5.2119">
        <ele>433.69</ele>
        <time>2019-03-29T12:04:54Z</time>
      </trkpt>
      <trkpt lat="45.39942" lon="5.21197">
        <ele>434.65</ele>
        <time>2019-03-29T12:04:56Z</time>
      </trkpt>
      <trkpt lat="45.39921" lon="5.21176">
        <ele>435.61</ele>
        <time>2019-03-29T12:06:39Z</time>
      </trkpt>
      <trkpt lat="45.39892" lon="5.21159">
        <ele>438.98</ele>
        <time>2019-03-29T12:06:50Z</time>
      </trkpt>
      <trkpt lat="45.39862" lon="5.21142">
        <ele>441.86</ele>
        <time>2019-03-29T12:07:02Z</time>
      </trkpt>
      <trkpt lat="45.39839" lon="5.2112">
        <ele>445.23</ele>
        <time>2019-03-29T12:07:13Z</time>
      </trkpt>
      <trkpt lat="45.39822" lon="5.21107">
        <ele>447.15</ele>
        <time>2019-03-29T12:07:31Z</time>
      </trkpt>
      <trkpt lat="45.39821" lon="5.21105">
        <ele>447.15</ele>
        <time>2019-03-29T12:07:36Z</time>
      </trkpt>
      <trkpt lat="45.3982" lon="5.21104">
        <ele>447.15</ele>
        <time>2019-03-29T12:07:37Z</time>
      </trkpt>
      <trkpt lat="45.39818" lon="5.21101">
        <ele>447.15</ele>
        <time>2019-03-29T12:07:38Z</time>
      </trkpt>
      <trkpt lat="45.39815" lon="5.21099">
        <ele>447.63</ele>
        <time>2019-03-29T12:07:39Z</time>
      </trkpt>
      <trkpt lat="45.39812" lon="5.21097">
        <ele>448.11</ele>
        <time>2019-03-29T12:07:40Z</time>
      </trkpt>
      <trkpt lat="45.3981" lon="5.21096">
        <ele>448.11</ele>
        <time>2019-03-29T12:07:41Z</time>
      </trkpt>
      <trkpt lat="45.39807" lon="5.21095">
        <ele>448.59</ele>
        <time>2019-03-29T12:07:42Z</time>
      </trkpt>
      <trkpt lat="45.39721" lon="5.21044">
        <ele>445.23</ele>
        <time>2019-03-29T12:08:06Z</time>
      </trkpt>
      <trkpt lat="45.39697" lon="5.21028">
        <ele>443.31</ele>
        <time>2019-03-29T12:08:12Z</time>
      </trkpt>
      <trkpt lat="45.39694" lon="5.21024">
        <ele>443.31</ele>
        <time>2019-03-29T12:08:13Z</time>
      </trkpt>
      <trkpt lat="45.39691" lon="5.21021">
        <ele>443.31</ele>
        <time>2019-03-29T12:08:14Z</time>
      </trkpt>
      <trkpt lat="45.3969" lon="5.21018">
        <ele>442.34</ele>
        <time>2019-03-29T12:09:39Z</time>
      </trkpt>
      <trkpt lat="45.39691" lon="5.21023">
        <ele>442.34</ele>
        <time>2019-03-29T12:09:41Z</time>
      </trkpt>
      <trkpt lat="45.3969" lon="5.21025">
        <ele>441.86</ele>
        <time>2019-03-29T12:09:42Z</time>
      </trkpt>
      <trkpt lat="45.39688" lon="5.21028">
        <ele>441.38</ele>
        <time>2019-03-29T12:09:43Z</time>
      </trkpt>
      <trkpt lat="45.39685" lon="5.21028">
        <ele>440.42</ele>
        <time>2019-03-29T12:09:44Z</time>
      </trkpt>
      <trkpt lat="45.39682" lon="5.21028">
        <ele>440.42</ele>
        <time>2019-03-29T12:09:45Z</time>
      </trkpt>
      <trkpt lat="45.3968" lon="5.21026">
        <ele>439.94</ele>
        <time>2019-03-29T12:09:46Z</time>
      </trkpt>
      <trkpt lat="45.39666" lon="5.21022">
        <ele>437.06</ele>
        <time>2019-03-29T12:09:50Z</time>
      </trkpt>
      <trkpt lat="45.39661" lon="5.21021">
        <ele>435.13</ele>
        <time>2019-03-29T12:09:51Z</time>
      </trkpt>
      <trkpt lat="45.39638" lon="5.21022">
        <ele>432.25</ele>
        <time>2019-03-29T12:09:56Z</time>
      </trkpt>
      <trkpt lat="45.39618" lon="5.21026">
        <ele>429.37</ele>
        <time>2019-03-29T12:10:01Z</time>
      </trkpt>
      <trkpt lat="45.39601" lon="5.21034">
        <ele>426</ele>
        <time>2019-03-29T12:10:06Z</time>
      </trkpt>
      <trkpt lat="45.39589" lon="5.21044">
        <ele>422.64</ele>
        <time>2019-03-29T12:10:10Z</time>
      </trkpt>
      <trkpt lat="45.39574" lon="5.21058">
        <ele>420.23</ele>
        <time>2019-03-29T12:10:14Z</time>
      </trkpt>
      <trkpt lat="45.39561" lon="5.21077">
        <ele>418.31</ele>
        <time>2019-03-29T12:10:18Z</time>
      </trkpt>
      <trkpt lat="45.39545" lon="5.21094">
        <ele>415.43</ele>
        <time>2019-03-29T12:10:22Z</time>
      </trkpt>
      <trkpt lat="45.39541" lon="5.21096">
        <ele>414.95</ele>
        <time>2019-03-29T12:10:23Z</time>
      </trkpt>
      <trkpt lat="45.39537" lon="5.21098">
        <ele>414.95</ele>
        <time>2019-03-29T12:10:24Z</time>
      </trkpt>
      <trkpt lat="45.39532" lon="5.21098">
        <ele>413.98</ele>
        <time>2019-03-29T12:10:25Z</time>
      </trkpt>
      <trkpt lat="45.39527" lon="5.21098">
        <ele>413.5</ele>
        <time>2019-03-29T12:10:26Z</time>
      </trkpt>
      <trkpt lat="45.39522" lon="5.21097">
        <ele>413.02</ele>
        <time>2019-03-29T12:10:27Z</time>
      </trkpt>
      <trkpt lat="45.39504" lon="5.21095">
        <ele>411.58</ele>
        <time>2019-03-29T12:10:31Z</time>
      </trkpt>
      <trkpt lat="45.39499" lon="5.21095">
        <ele>411.1</ele>
        <time>2019-03-29T12:10:32Z</time>
      </trkpt>
      <trkpt lat="45.39463" lon="5.21104">
        <ele>408.22</ele>
        <time>2019-03-29T12:10:40Z</time>
      </trkpt>
      <trkpt lat="45.39451" lon="5.21109">
        <ele>406.77</ele>
        <time>2019-03-29T12:10:43Z</time>
      </trkpt>
      <trkpt lat="45.39446" lon="5.21109">
        <ele>406.29</ele>
        <time>2019-03-29T12:10:44Z</time>
      </trkpt>
      <trkpt lat="45.39442" lon="5.21108">
        <ele>406.29</ele>
        <time>2019-03-29T12:10:45Z</time>
      </trkpt>
      <trkpt lat="45.39438" lon="5.21107">
        <ele>406.29</ele>
        <time>2019-03-29T12:10:46Z</time>
      </trkpt>
      <trkpt lat="45.39434" lon="5.21104">
        <ele>405.81</ele>
        <time>2019-03-29T12:10:47Z</time>
      </trkpt>
      <trkpt lat="45.3943" lon="5.211">
        <ele>405.33</ele>
        <time>2019-03-29T12:10:48Z</time>
      </trkpt>
      <trkpt lat="45.39427" lon="5.21095">
        <ele>405.33</ele>
        <time>2019-03-29T12:10:49Z</time>
      </trkpt>
      <trkpt lat="45.39424" lon="5.2109">
        <ele>404.37</ele>
        <time>2019-03-29T12:10:50Z</time>
      </trkpt>
      <trkpt lat="45.39421" lon="5.21084">
        <ele>404.37</ele>
        <time>2019-03-29T12:10:51Z</time>
      </trkpt>
      <trkpt lat="45.39418" lon="5.21079">
        <ele>404.37</ele>
        <time>2019-03-29T12:10:52Z</time>
      </trkpt>
      <trkpt lat="45.39406" lon="5.21054">
        <ele>403.41</ele>
        <time>2019-03-29T12:10:57Z</time>
      </trkpt>
      <trkpt lat="45.39388" lon="5.21026">
        <ele>402.45</ele>
        <time>2019-03-29T12:11:03Z</time>
      </trkpt>
      <trkpt lat="45.39385" lon="5.2102">
        <ele>402.45</ele>
        <time>2019-03-29T12:11:04Z</time>
      </trkpt>
      <trkpt lat="45.39373" lon="5.20987">
        <ele>401.01</ele>
        <time>2019-03-29T12:11:11Z</time>
      </trkpt>
      <trkpt lat="45.3937" lon="5.20975">
        <ele>400.05</ele>
        <time>2019-03-29T12:11:13Z</time>
      </trkpt>
      <trkpt lat="45.39364" lon="5.20946">
        <ele>398.6</ele>
        <time>2019-03-29T12:11:18Z</time>
      </trkpt>
      <trkpt lat="45.39361" lon="5.20928">
        <ele>397.64</ele>
        <time>2019-03-29T12:11:21Z</time>
      </trkpt>
      <trkpt lat="45.39359" lon="5.20923">
        <ele>397.16</ele>
        <time>2019-03-29T12:11:22Z</time>
      </trkpt>
      <trkpt lat="45.39357" lon="5.20918">
        <ele>397.16</ele>
        <time>2019-03-29T12:11:23Z</time>
      </trkpt>
      <trkpt lat="45.39354" lon="5.20914">
        <ele>396.68</ele>
        <time>2019-03-29T12:11:24Z</time>
      </trkpt>
      <trkpt lat="45.39351" lon="5.2091">
        <ele>396.68</ele>
        <time>2019-03-29T12:11:25Z</time>
      </trkpt>
      <trkpt lat="45.39334" lon="5.2089">
        <ele>394.28</ele>
        <time>2019-03-29T12:11:30Z</time>
      </trkpt>
      <trkpt lat="45.39301" lon="5.20856">
        <ele>390.91</ele>
        <time>2019-03-29T12:11:38Z</time>
      </trkpt>
      <trkpt lat="45.39278" lon="5.2083">
        <ele>388.03</ele>
        <time>2019-03-29T12:11:44Z</time>
      </trkpt>
      <trkpt lat="45.39262" lon="5.20812">
        <ele>385.63</ele>
        <time>2019-03-29T12:11:48Z</time>
      </trkpt>
      <trkpt lat="45.39254" lon="5.20803">
        <ele>384.66</ele>
        <time>2019-03-29T12:11:50Z</time>
      </trkpt>
      <trkpt lat="45.39251" lon="5.20798">
        <ele>384.18</ele>
        <time>2019-03-29T12:11:51Z</time>
      </trkpt>
      <trkpt lat="45.39244" lon="5.20788">
        <ele>383.7</ele>
        <time>2019-03-29T12:11:53Z</time>
      </trkpt>
      <trkpt lat="45.39233" lon="5.20774">
        <ele>381.78</ele>
        <time>2019-03-29T12:11:56Z</time>
      </trkpt>
      <trkpt lat="45.39229" lon="5.2077">
        <ele>381.3</ele>
        <time>2019-03-29T12:11:57Z</time>
      </trkpt>
      <trkpt lat="45.39225" lon="5.20767">
        <ele>380.82</ele>
        <time>2019-03-29T12:11:58Z</time>
      </trkpt>
      <trkpt lat="45.3922" lon="5.20763">
        <ele>380.82</ele>
        <time>2019-03-29T12:11:59Z</time>
      </trkpt>
      <trkpt lat="45.39202" lon="5.20755">
        <ele>379.38</ele>
        <time>2019-03-29T12:12:03Z</time>
      </trkpt>
      <trkpt lat="45.39198" lon="5.20754">
        <ele>378.9</ele>
        <time>2019-03-29T12:12:04Z</time>
      </trkpt>
      <trkpt lat="45.39188" lon="5.20755">
        <ele>378.42</ele>
        <time>2019-03-29T12:12:06Z</time>
      </trkpt>
      <trkpt lat="45.39141" lon="5.20771">
        <ele>375.53</ele>
        <time>2019-03-29T12:12:17Z</time>
      </trkpt>
      <trkpt lat="45.39121" lon="5.20775">
        <ele>373.13</ele>
        <time>2019-03-29T12:12:23Z</time>
      </trkpt>
      <trkpt lat="45.39118" lon="5.20775">
        <ele>373.61</ele>
        <time>2019-03-29T12:12:32Z</time>
      </trkpt>
      <trkpt lat="45.39117" lon="5.20773">
        <ele>373.61</ele>
        <time>2019-03-29T12:12:33Z</time>
      </trkpt>
      <trkpt lat="45.39115" lon="5.20772">
        <ele>373.61</ele>
        <time>2019-03-29T12:12:34Z</time>
      </trkpt>
      <trkpt lat="45.39113" lon="5.20772">
        <ele>373.13</ele>
        <time>2019-03-29T12:12:35Z</time>
      </trkpt>
      <trkpt lat="45.39109" lon="5.20772">
        <ele>372.65</ele>
        <time>2019-03-29T12:12:36Z</time>
      </trkpt>
      <trkpt lat="45.39106" lon="5.20771">
        <ele>372.65</ele>
        <time>2019-03-29T12:12:37Z</time>
      </trkpt>
      <trkpt lat="45.39094" lon="5.20772">
        <ele>372.17</ele>
        <time>2019-03-29T12:12:40Z</time>
      </trkpt>
      <trkpt lat="45.3909" lon="5.20773">
        <ele>372.65</ele>
        <time>2019-03-29T12:12:41Z</time>
      </trkpt>
      <trkpt lat="45.39086" lon="5.20775">
        <ele>372.17</ele>
        <time>2019-03-29T12:12:42Z</time>
      </trkpt>
      <trkpt lat="45.39073" lon="5.20779">
        <ele>372.17</ele>
        <time>2019-03-29T12:12:45Z</time>
      </trkpt>
      <trkpt lat="45.39002" lon="5.20787">
        <ele>368.8</ele>
        <time>2019-03-29T12:12:58Z</time>
      </trkpt>
      <trkpt lat="45.38865" lon="5.20801">
        <ele>365.44</ele>
        <time>2019-03-29T12:13:25Z</time>
      </trkpt>
      <trkpt lat="45.38706" lon="5.20814">
        <ele>365.44</ele>
        <time>2019-03-29T12:13:56Z</time>
      </trkpt>
      <trkpt lat="45.38566" lon="5.20816">
        <ele>365.92</ele>
        <time>2019-03-29T12:14:25Z</time>
      </trkpt>
      <trkpt lat="45.38404" lon="5.20847">
        <ele>365.44</ele>
        <time>2019-03-29T12:14:59Z</time>
      </trkpt>
      <trkpt lat="45.38242" lon="5.20882">
        <ele>363.52</ele>
        <time>2019-03-29T12:15:37Z</time>
      </trkpt>
      <trkpt lat="45.38186" lon="5.20889">
        <ele>363.52</ele>
        <time>2019-03-29T12:16:01Z</time>
      </trkpt>
      <trkpt lat="45.38154" lon="5.20894">
        <ele>362.55</ele>
        <time>2019-03-29T12:16:56Z</time>
      </trkpt>
      <trkpt lat="45.38041" lon="5.20842">
        <ele>362.55</ele>
        <time>2019-03-29T12:17:26Z</time>
      </trkpt>
      <trkpt lat="45.37924" lon="5.20832">
        <ele>362.55</ele>
        <time>2019-03-29T12:17:56Z</time>
      </trkpt>
      <trkpt lat="45.3776" lon="5.2087">
        <ele>361.59</ele>
        <time>2019-03-29T12:18:39Z</time>
      </trkpt>
      <trkpt lat="45.37617" lon="5.20907">
        <ele>360.15</ele>
        <time>2019-03-29T12:19:16Z</time>
      </trkpt>
      <trkpt lat="45.37435" lon="5.20966">
        <ele>359.19</ele>
        <time>2019-03-29T12:20:03Z</time>
      </trkpt>
      <trkpt lat="45.37286" lon="5.21024">
        <ele>357.75</ele>
        <time>2019-03-29T12:20:43Z</time>
      </trkpt>
      <trkpt lat="45.37169" lon="5.21066">
        <ele>357.27</ele>
        <time>2019-03-29T12:21:15Z</time>
      </trkpt>
      <trkpt lat="45.37051" lon="5.21084">
        <ele>356.31</ele>
        <time>2019-03-29T12:21:48Z</time>
      </trkpt>
      <trkpt lat="45.36963" lon="5.21097">
        <ele>354.38</ele>
        <time>2019-03-29T12:22:16Z</time>
      </trkpt>
      <trkpt lat="45.36952" lon="5.21145">
        <ele>354.86</ele>
        <time>2019-03-29T12:22:34Z</time>
      </trkpt>
      <trkpt lat="45.36953" lon="5.21147">
        <ele>354.86</ele>
        <time>2019-03-29T12:22:35Z</time>
      </trkpt>
      <trkpt lat="45.36953" lon="5.21149">
        <ele>354.86</ele>
        <time>2019-03-29T12:22:36Z</time>
      </trkpt>
      <trkpt lat="45.36956" lon="5.21149">
        <ele>354.86</ele>
        <time>2019-03-29T12:22:41Z</time>
      </trkpt>
      <trkpt lat="45.36956" lon="5.21148">
        <ele>354.86</ele>
        <time>2019-03-29T12:22:42Z</time>
      </trkpt>
      <trkpt lat="45.36956" lon="5.21145">
        <ele>355.34</ele>
        <time>2019-03-29T12:22:43Z</time>
      </trkpt>
      <trkpt lat="45.36981" lon="5.2109">
        <ele>354.86</ele>
        <time>2019-03-29T12:22:59Z</time>
      </trkpt>
      <trkpt lat="45.36982" lon="5.21087">
        <ele>354.38</ele>
        <time>2019-03-29T12:23:00Z</time>
      </trkpt>
      <trkpt lat="45.36982" lon="5.21085">
        <ele>354.38</ele>
        <time>2019-03-29T12:23:01Z</time>
      </trkpt>
      <trkpt lat="45.36979" lon="5.2108">
        <ele>353.9</ele>
        <time>2019-03-29T12:23:04Z</time>
      </trkpt>
      <trkpt lat="45.36925" lon="5.21114">
        <ele>351.02</ele>
        <time>2019-03-29T12:23:17Z</time>
      </trkpt>
      <trkpt lat="45.36908" lon="5.21123">
        <ele>349.1</ele>
        <time>2019-03-29T12:23:20Z</time>
      </trkpt>
      <trkpt lat="45.36903" lon="5.21126">
        <ele>349.1</ele>
        <time>2019-03-29T12:23:21Z</time>
      </trkpt>
      <trkpt lat="45.36854" lon="5.21159">
        <ele>345.73</ele>
        <time>2019-03-29T12:23:30Z</time>
      </trkpt>
      <trkpt lat="45.36796" lon="5.21202">
        <ele>342.37</ele>
        <time>2019-03-29T12:23:41Z</time>
      </trkpt>
      <trkpt lat="45.36712" lon="5.21233">
        <ele>339.48</ele>
        <time>2019-03-29T12:23:54Z</time>
      </trkpt>
      <trkpt lat="45.36648" lon="5.21268">
        <ele>336.6</ele>
        <time>2019-03-29T12:24:06Z</time>
      </trkpt>
      <trkpt lat="45.3657" lon="5.21292">
        <ele>333.23</ele>
        <time>2019-03-29T12:24:20Z</time>
      </trkpt>
      <trkpt lat="45.36558" lon="5.21297">
        <ele>332.27</ele>
        <time>2019-03-29T12:24:22Z</time>
      </trkpt>
      <trkpt lat="45.36475" lon="5.21325">
        <ele>330.35</ele>
        <time>2019-03-29T12:24:37Z</time>
      </trkpt>
      <trkpt lat="45.36361" lon="5.21367">
        <ele>329.87</ele>
        <time>2019-03-29T12:25:07Z</time>
      </trkpt>
      <trkpt lat="45.36359" lon="5.21371">
        <ele>329.87</ele>
        <time>2019-03-29T12:25:20Z</time>
      </trkpt>
      <trkpt lat="45.3636" lon="5.21374">
        <ele>329.87</ele>
        <time>2019-03-29T12:25:21Z</time>
      </trkpt>
      <trkpt lat="45.36361" lon="5.21377">
        <ele>329.87</ele>
        <time>2019-03-29T12:25:22Z</time>
      </trkpt>
      <trkpt lat="45.36393" lon="5.21478">
        <ele>330.35</ele>
        <time>2019-03-29T12:25:45Z</time>
      </trkpt>
      <trkpt lat="45.3641" lon="5.21555">
        <ele>330.83</ele>
        <time>2019-03-29T12:26:06Z</time>
      </trkpt>
      <trkpt lat="45.36413" lon="5.21552">
        <ele>330.83</ele>
        <time>2019-03-29T12:26:28Z</time>
      </trkpt>
      <trkpt lat="45.36413" lon="5.2155">
        <ele>330.83</ele>
        <time>2019-03-29T12:26:42Z</time>
      </trkpt>
      <trkpt lat="45.36413" lon="5.21548">
        <ele>330.35</ele>
        <time>2019-03-29T12:26:43Z</time>
      </trkpt>
      <trkpt lat="45.36411" lon="5.21539">
        <ele>330.35</ele>
        <time>2019-03-29T12:26:47Z</time>
      </trkpt>
      <trkpt lat="45.36404" lon="5.21533">
        <ele>330.35</ele>
        <time>2019-03-29T12:27:13Z</time>
      </trkpt>
      <trkpt lat="45.36406" lon="5.21527">
        <ele>330.83</ele>
        <time>2019-03-29T12:27:42Z</time>
      </trkpt>
      <trkpt lat="45.36407" lon="5.21528">
        <ele>330.35</ele>
        <time>2019-03-29T12:27:50Z</time>
      </trkpt>
      <trkpt lat="45.36408" lon="5.21529">
        <ele>330.35</ele>
        <time>2019-03-29T12:27:51Z</time>
      </trkpt>
      <trkpt lat="45.36408" lon="5.21531">
        <ele>330.35</ele>
        <time>2019-03-29T12:27:52Z</time>
      </trkpt>
      <trkpt lat="45.36422" lon="5.216">
        <ele>331.31</ele>
        <time>2019-03-29T12:28:13Z</time>
      </trkpt>
      <trkpt lat="45.3643" lon="5.21672">
        <ele>331.31</ele>
        <time>2019-03-29T12:28:32Z</time>
      </trkpt>
      <trkpt lat="45.36436" lon="5.21756">
        <ele>331.79</ele>
        <time>2019-03-29T12:28:55Z</time>
      </trkpt>
      <trkpt lat="45.36361" lon="5.21865">
        <ele>331.79</ele>
        <time>2019-03-29T12:29:26Z</time>
      </trkpt>
      <trkpt lat="45.36337" lon="5.21982">
        <ele>331.79</ele>
        <time>2019-03-29T12:29:50Z</time>
      </trkpt>
      <trkpt lat="45.36241" lon="5.22132">
        <ele>331.79</ele>
        <time>2019-03-29T12:30:25Z</time>
      </trkpt>
      <trkpt lat="45.36139" lon="5.22282">
        <ele>332.75</ele>
        <time>2019-03-29T12:31:04Z</time>
      </trkpt>
      <trkpt lat="45.36021" lon="5.22422">
        <ele>334.2</ele>
        <time>2019-03-29T12:31:46Z</time>
      </trkpt>
      <trkpt lat="45.35921" lon="5.22589">
        <ele>335.16</ele>
        <time>2019-03-29T12:32:27Z</time>
      </trkpt>
      <trkpt lat="45.35848" lon="5.22722">
        <ele>336.12</ele>
        <time>2019-03-29T12:33:03Z</time>
      </trkpt>
      <trkpt lat="45.35748" lon="5.22853">
        <ele>336.6</ele>
        <time>2019-03-29T12:33:44Z</time>
      </trkpt>
      <trkpt lat="45.35664" lon="5.22946">
        <ele>335.64</ele>
        <time>2019-03-29T12:34:15Z</time>
      </trkpt>
      <trkpt lat="45.35605" lon="5.23067">
        <ele>336.12</ele>
        <time>2019-03-29T12:34:44Z</time>
      </trkpt>
      <trkpt lat="45.35534" lon="5.23182">
        <ele>336.6</ele>
        <time>2019-03-29T12:35:17Z</time>
      </trkpt>
      <trkpt lat="45.35437" lon="5.23268">
        <ele>336.12</ele>
        <time>2019-03-29T12:35:52Z</time>
      </trkpt>
      <trkpt lat="45.3536" lon="5.23328">
        <ele>336.12</ele>
        <time>2019-03-29T12:36:19Z</time>
      </trkpt>
      <trkpt lat="45.3533" lon="5.23352">
        <ele>337.08</ele>
        <time>2019-03-29T12:36:31Z</time>
      </trkpt>
      <trkpt lat="45.35327" lon="5.23351">
        <ele>336.6</ele>
        <time>2019-03-29T12:36:32Z</time>
      </trkpt>
      <trkpt lat="45.35258" lon="5.23323">
        <ele>337.56</ele>
        <time>2019-03-29T12:36:54Z</time>
      </trkpt>
      <trkpt lat="45.3511" lon="5.2333">
        <ele>336.6</ele>
        <time>2019-03-29T12:37:36Z</time>
      </trkpt>
      <trkpt lat="45.34966" lon="5.23345">
        <ele>336.6</ele>
        <time>2019-03-29T12:38:17Z</time>
      </trkpt>
      <trkpt lat="45.3487" lon="5.23349">
        <ele>338.04</ele>
        <time>2019-03-29T12:38:49Z</time>
      </trkpt>
      <trkpt lat="45.34846" lon="5.23346">
        <ele>335.64</ele>
        <time>2019-03-29T12:39:12Z</time>
      </trkpt>
      <trkpt lat="45.34842" lon="5.23353">
        <ele>335.64</ele>
        <time>2019-03-29T12:40:36Z</time>
      </trkpt>
      <trkpt lat="45.34844" lon="5.23347">
        <ele>335.16</ele>
        <time>2019-03-29T12:42:57Z</time>
      </trkpt>
      <trkpt lat="45.34833" lon="5.23343">
        <ele>335.64</ele>
        <time>2019-03-29T12:43:19Z</time>
      </trkpt>
      <trkpt lat="45.34827" lon="5.23343">
        <ele>335.16</ele>
        <time>2019-03-29T12:43:28Z</time>
      </trkpt>
      <trkpt lat="45.34823" lon="5.23343">
        <ele>333.71</ele>
        <time>2019-03-29T12:43:48Z</time>
      </trkpt>
      <trkpt lat="45.34822" lon="5.23344">
        <ele>334.2</ele>
        <time>2019-03-29T12:44:13Z</time>
      </trkpt>
      <trkpt lat="45.34816" lon="5.23345">
        <ele>334.68</ele>
        <time>2019-03-29T12:45:09Z</time>
      </trkpt>
      <trkpt lat="45.34753" lon="5.23363">
        <ele>334.68</ele>
        <time>2019-03-29T12:45:34Z</time>
      </trkpt>
      <trkpt lat="45.34616" lon="5.23402">
        <ele>335.64</ele>
        <time>2019-03-29T12:46:21Z</time>
      </trkpt>
      <trkpt lat="45.34523" lon="5.23427">
        <ele>335.64</ele>
        <time>2019-03-29T12:46:55Z</time>
      </trkpt>
      <trkpt lat="45.3452" lon="5.23427">
        <ele>336.12</ele>
        <time>2019-03-29T12:47:21Z</time>
      </trkpt>
      <trkpt lat="45.34516" lon="5.23424">
        <ele>335.64</ele>
        <time>2019-03-29T12:48:07Z</time>
      </trkpt>
      <trkpt lat="45.34512" lon="5.2342">
        <ele>336.12</ele>
        <time>2019-03-29T12:48:10Z</time>
      </trkpt>
      <trkpt lat="45.34509" lon="5.23416">
        <ele>336.12</ele>
        <time>2019-03-29T12:48:13Z</time>
      </trkpt>
      <trkpt lat="45.34509" lon="5.23414">
        <ele>336.12</ele>
        <time>2019-03-29T12:48:14Z</time>
      </trkpt>
      <trkpt lat="45.34509" lon="5.23412">
        <ele>336.12</ele>
        <time>2019-03-29T12:48:15Z</time>
      </trkpt>
      <trkpt lat="45.34501" lon="5.23353">
        <ele>335.64</ele>
        <time>2019-03-29T12:48:46Z</time>
      </trkpt>
      <trkpt lat="45.345" lon="5.23352">
        <ele>335.64</ele>
        <time>2019-03-29T12:48:47Z</time>
      </trkpt>
      <trkpt lat="45.34498" lon="5.23352">
        <ele>335.16</ele>
        <time>2019-03-29T12:48:48Z</time>
      </trkpt>
      <trkpt lat="45.34492" lon="5.23351">
        <ele>335.16</ele>
        <time>2019-03-29T12:49:15Z</time>
      </trkpt>
      <trkpt lat="45.34428" lon="5.23353">
        <ele>335.64</ele>
        <time>2019-03-29T12:49:38Z</time>
      </trkpt>
      <trkpt lat="45.34344" lon="5.23354">
        <ele>335.16</ele>
        <time>2019-03-29T12:50:05Z</time>
      </trkpt>
      <trkpt lat="45.34239" lon="5.23363">
        <ele>337.56</ele>
        <time>2019-03-29T12:50:40Z</time>
      </trkpt>
      <trkpt lat="45.34156" lon="5.23385">
        <ele>339.48</ele>
        <time>2019-03-29T12:51:13Z</time>
      </trkpt>
      <trkpt lat="45.34094" lon="5.2341">
        <ele>340.44</ele>
        <time>2019-03-29T12:51:40Z</time>
      </trkpt>
      <trkpt lat="45.34023" lon="5.23435">
        <ele>343.81</ele>
        <time>2019-03-29T12:52:09Z</time>
      </trkpt>
      <trkpt lat="45.33989" lon="5.23444">
        <ele>347.17</ele>
        <time>2019-03-29T12:52:22Z</time>
      </trkpt>
      <trkpt lat="45.33942" lon="5.23465">
        <ele>350.06</ele>
        <time>2019-03-29T12:52:42Z</time>
      </trkpt>
      <trkpt lat="45.33935" lon="5.23466">
        <ele>350.06</ele>
        <time>2019-03-29T12:53:02Z</time>
      </trkpt>
      <trkpt lat="45.33909" lon="5.23474">
        <ele>350.54</ele>
        <time>2019-03-29T12:54:07Z</time>
      </trkpt>
      <trkpt lat="45.33839" lon="5.23505">
        <ele>351.5</ele>
        <time>2019-03-29T12:54:34Z</time>
      </trkpt>
      <trkpt lat="45.33763" lon="5.23516">
        <ele>353.42</ele>
        <time>2019-03-29T12:55:04Z</time>
      </trkpt>
      <trkpt lat="45.33706" lon="5.23574">
        <ele>353.9</ele>
        <time>2019-03-29T12:55:30Z</time>
      </trkpt>
      <trkpt lat="45.3364" lon="5.23609">
        <ele>354.38</ele>
        <time>2019-03-29T12:55:56Z</time>
      </trkpt>
      <trkpt lat="45.33581" lon="5.23642">
        <ele>354.86</ele>
        <time>2019-03-29T12:56:19Z</time>
      </trkpt>
      <trkpt lat="45.33528" lon="5.23664">
        <ele>355.83</ele>
        <time>2019-03-29T12:56:46Z</time>
      </trkpt>
      <trkpt lat="45.33526" lon="5.23661">
        <ele>355.34</ele>
        <time>2019-03-29T12:57:23Z</time>
      </trkpt>
      <trkpt lat="45.33524" lon="5.23659">
        <ele>355.83</ele>
        <time>2019-03-29T12:57:24Z</time>
      </trkpt>
      <trkpt lat="45.33521" lon="5.23657">
        <ele>356.31</ele>
        <time>2019-03-29T12:57:26Z</time>
      </trkpt>
      <trkpt lat="45.33518" lon="5.23656">
        <ele>356.31</ele>
        <time>2019-03-29T12:57:27Z</time>
      </trkpt>
      <trkpt lat="45.33432" lon="5.23645">
        <ele>358.23</ele>
        <time>2019-03-29T12:57:58Z</time>
      </trkpt>
      <trkpt lat="45.33316" lon="5.23633">
        <ele>358.71</ele>
        <time>2019-03-29T12:58:38Z</time>
      </trkpt>
      <trkpt lat="45.33218" lon="5.23611">
        <ele>359.67</ele>
        <time>2019-03-29T12:59:13Z</time>
      </trkpt>
      <trkpt lat="45.33111" lon="5.23625">
        <ele>360.15</ele>
        <time>2019-03-29T12:59:51Z</time>
      </trkpt>
      <trkpt lat="45.33045" lon="5.23595">
        <ele>361.11</ele>
        <time>2019-03-29T13:00:17Z</time>
      </trkpt>
      <trkpt lat="45.32963" lon="5.23571">
        <ele>361.11</ele>
        <time>2019-03-29T13:00:46Z</time>
      </trkpt>
      <trkpt lat="45.32876" lon="5.23542">
        <ele>361.11</ele>
        <time>2019-03-29T13:01:16Z</time>
      </trkpt>
      <trkpt lat="45.32795" lon="5.23511">
        <ele>362.55</ele>
        <time>2019-03-29T13:01:46Z</time>
      </trkpt>
      <trkpt lat="45.32696" lon="5.2346">
        <ele>362.07</ele>
        <time>2019-03-29T13:02:23Z</time>
      </trkpt>
      <trkpt lat="45.32617" lon="5.23428">
        <ele>361.11</ele>
        <time>2019-03-29T13:02:50Z</time>
      </trkpt>
      <trkpt lat="45.32527" lon="5.2341">
        <ele>360.63</ele>
        <time>2019-03-29T13:03:22Z</time>
      </trkpt>
      <trkpt lat="45.3245" lon="5.2336">
        <ele>359.67</ele>
        <time>2019-03-29T13:03:49Z</time>
      </trkpt>
      <trkpt lat="45.32431" lon="5.23345">
        <ele>359.67</ele>
        <time>2019-03-29T13:04:10Z</time>
      </trkpt>
      <trkpt lat="45.3243" lon="5.23345">
        <ele>359.67</ele>
        <time>2019-03-29T13:05:00Z</time>
      </trkpt>
      <trkpt lat="45.32428" lon="5.23346">
        <ele>359.19</ele>
        <time>2019-03-29T13:05:01Z</time>
      </trkpt>
      <trkpt lat="45.3236" lon="5.23365">
        <ele>362.07</ele>
        <time>2019-03-29T13:05:25Z</time>
      </trkpt>
      <trkpt lat="45.32312" lon="5.23378">
        <ele>365.44</ele>
        <time>2019-03-29T13:05:41Z</time>
      </trkpt>
      <trkpt lat="45.32254" lon="5.23391">
        <ele>368.8</ele>
        <time>2019-03-29T13:06:05Z</time>
      </trkpt>
      <trkpt lat="45.32191" lon="5.23417">
        <ele>371.21</ele>
        <time>2019-03-29T13:06:28Z</time>
      </trkpt>
      <trkpt lat="45.3214" lon="5.23431">
        <ele>374.09</ele>
        <time>2019-03-29T13:06:46Z</time>
      </trkpt>
      <trkpt lat="45.32118" lon="5.23453">
        <ele>377.45</ele>
        <time>2019-03-29T13:06:58Z</time>
      </trkpt>
      <trkpt lat="45.32118" lon="5.23456">
        <ele>377.45</ele>
        <time>2019-03-29T13:06:59Z</time>
      </trkpt>
      <trkpt lat="45.32137" lon="5.23558">
        <ele>377.45</ele>
        <time>2019-03-29T13:07:24Z</time>
      </trkpt>
      <trkpt lat="45.32095" lon="5.23585">
        <ele>378.9</ele>
        <time>2019-03-29T13:07:42Z</time>
      </trkpt>
      <trkpt lat="45.32038" lon="5.23617">
        <ele>381.78</ele>
        <time>2019-03-29T13:08:04Z</time>
      </trkpt>
      <trkpt lat="45.31988" lon="5.23648">
        <ele>385.15</ele>
        <time>2019-03-29T13:08:23Z</time>
      </trkpt>
      <trkpt lat="45.31971" lon="5.23653">
        <ele>386.59</ele>
        <time>2019-03-29T13:08:33Z</time>
      </trkpt>
      <trkpt lat="45.31969" lon="5.23652">
        <ele>386.59</ele>
        <time>2019-03-29T13:08:34Z</time>
      </trkpt>
      <trkpt lat="45.31968" lon="5.23649">
        <ele>386.59</ele>
        <time>2019-03-29T13:08:35Z</time>
      </trkpt>
      <trkpt lat="45.31967" lon="5.23647">
        <ele>387.07</ele>
        <time>2019-03-29T13:08:36Z</time>
      </trkpt>
      <trkpt lat="45.31966" lon="5.23643">
        <ele>386.11</ele>
        <time>2019-03-29T13:08:37Z</time>
      </trkpt>
      <trkpt lat="45.31965" lon="5.2364">
        <ele>386.59</ele>
        <time>2019-03-29T13:08:38Z</time>
      </trkpt>
      <trkpt lat="45.31921" lon="5.23586">
        <ele>387.07</ele>
        <time>2019-03-29T13:09:03Z</time>
      </trkpt>
      <trkpt lat="45.31879" lon="5.23554">
        <ele>388.99</ele>
        <time>2019-03-29T13:09:25Z</time>
      </trkpt>
      <trkpt lat="45.31885" lon="5.23496">
        <ele>388.03</ele>
        <time>2019-03-29T13:09:44Z</time>
      </trkpt>
      <trkpt lat="45.31884" lon="5.23492">
        <ele>388.51</ele>
        <time>2019-03-29T13:10:41Z</time>
      </trkpt>
      <trkpt lat="45.31883" lon="5.23489">
        <ele>388.03</ele>
        <time>2019-03-29T13:10:42Z</time>
      </trkpt>
      <trkpt lat="45.31846" lon="5.23398">
        <ele>389.47</ele>
        <time>2019-03-29T13:11:07Z</time>
      </trkpt>
      <trkpt lat="45.3182" lon="5.23331">
        <ele>392.36</ele>
        <time>2019-03-29T13:11:27Z</time>
      </trkpt>
      <trkpt lat="45.31807" lon="5.2328">
        <ele>395.72</ele>
        <time>2019-03-29T13:11:41Z</time>
      </trkpt>
      <trkpt lat="45.31806" lon="5.23276">
        <ele>396.2</ele>
        <time>2019-03-29T13:11:42Z</time>
      </trkpt>
      <trkpt lat="45.31796" lon="5.23244">
        <ele>399.57</ele>
        <time>2019-03-29T13:11:51Z</time>
      </trkpt>
      <trkpt lat="45.31773" lon="5.23159">
        <ele>401.97</ele>
        <time>2019-03-29T13:12:17Z</time>
      </trkpt>
      <trkpt lat="45.31727" lon="5.23132">
        <ele>404.37</ele>
        <time>2019-03-29T13:12:37Z</time>
      </trkpt>
      <trkpt lat="45.31696" lon="5.23121">
        <ele>404.85</ele>
        <time>2019-03-29T13:13:02Z</time>
      </trkpt>
      <trkpt lat="45.31669" lon="5.23119">
        <ele>406.77</ele>
        <time>2019-03-29T13:13:38Z</time>
      </trkpt>
      <trkpt lat="45.31619" lon="5.23116">
        <ele>409.66</ele>
        <time>2019-03-29T13:13:58Z</time>
      </trkpt>
      <trkpt lat="45.31616" lon="5.23097">
        <ele>409.18</ele>
        <time>2019-03-29T13:14:04Z</time>
      </trkpt>
      <trkpt lat="45.31619" lon="5.23069">
        <ele>407.74</ele>
        <time>2019-03-29T13:14:09Z</time>
      </trkpt>
      <trkpt lat="45.31625" lon="5.23006">
        <ele>404.37</ele>
        <time>2019-03-29T13:14:20Z</time>
      </trkpt>
      <trkpt lat="45.31601" lon="5.22943">
        <ele>401.49</ele>
        <time>2019-03-29T13:14:33Z</time>
      </trkpt>
      <trkpt lat="45.31593" lon="5.22922">
        <ele>400.53</ele>
        <time>2019-03-29T13:14:37Z</time>
      </trkpt>
      <trkpt lat="45.3159" lon="5.22917">
        <ele>400.05</ele>
        <time>2019-03-29T13:14:38Z</time>
      </trkpt>
      <trkpt lat="45.31587" lon="5.22913">
        <ele>400.05</ele>
        <time>2019-03-29T13:14:39Z</time>
      </trkpt>
      <trkpt lat="45.31583" lon="5.22911">
        <ele>399.57</ele>
        <time>2019-03-29T13:14:40Z</time>
      </trkpt>
      <trkpt lat="45.31579" lon="5.22911">
        <ele>399.08</ele>
        <time>2019-03-29T13:14:41Z</time>
      </trkpt>
      <trkpt lat="45.31574" lon="5.2291">
        <ele>398.6</ele>
        <time>2019-03-29T13:14:42Z</time>
      </trkpt>
      <trkpt lat="45.31568" lon="5.22911">
        <ele>398.6</ele>
        <time>2019-03-29T13:14:43Z</time>
      </trkpt>
      <trkpt lat="45.31563" lon="5.22912">
        <ele>397.64</ele>
        <time>2019-03-29T13:14:44Z</time>
      </trkpt>
      <trkpt lat="45.31557" lon="5.22914">
        <ele>397.16</ele>
        <time>2019-03-29T13:14:45Z</time>
      </trkpt>
      <trkpt lat="45.31493" lon="5.22934">
        <ele>395.24</ele>
        <time>2019-03-29T13:14:55Z</time>
      </trkpt>
      <trkpt lat="45.31489" lon="5.22934">
        <ele>395.72</ele>
        <time>2019-03-29T13:14:56Z</time>
      </trkpt>
      <trkpt lat="45.31484" lon="5.22933">
        <ele>395.72</ele>
        <time>2019-03-29T13:14:57Z</time>
      </trkpt>
      <trkpt lat="45.31438" lon="5.22916">
        <ele>398.6</ele>
        <time>2019-03-29T13:15:14Z</time>
      </trkpt>
      <trkpt lat="45.31396" lon="5.22925">
        <ele>401.97</ele>
        <time>2019-03-29T13:15:28Z</time>
      </trkpt>
      <trkpt lat="45.31366" lon="5.22935">
        <ele>405.33</ele>
        <time>2019-03-29T13:15:39Z</time>
      </trkpt>
      <trkpt lat="45.31341" lon="5.22943">
        <ele>408.22</ele>
        <time>2019-03-29T13:15:49Z</time>
      </trkpt>
      <trkpt lat="45.31335" lon="5.22942">
        <ele>409.18</ele>
        <time>2019-03-29T13:15:51Z</time>
      </trkpt>
      <trkpt lat="45.31306" lon="5.22943">
        <ele>412.54</ele>
        <time>2019-03-29T13:16:03Z</time>
      </trkpt>
      <trkpt lat="45.31286" lon="5.22953">
        <ele>415.43</ele>
        <time>2019-03-29T13:16:12Z</time>
      </trkpt>
      <trkpt lat="45.3126" lon="5.22961">
        <ele>419.27</ele>
        <time>2019-03-29T13:16:23Z</time>
      </trkpt>
      <trkpt lat="45.31243" lon="5.22967">
        <ele>420.71</ele>
        <time>2019-03-29T13:16:30Z</time>
      </trkpt>
      <trkpt lat="45.31224" lon="5.22969">
        <ele>424.08</ele>
        <time>2019-03-29T13:16:38Z</time>
      </trkpt>
      <trkpt lat="45.31204" lon="5.22964">
        <ele>426.96</ele>
        <time>2019-03-29T13:16:57Z</time>
      </trkpt>
      <trkpt lat="45.31202" lon="5.22964">
        <ele>427.44</ele>
        <time>2019-03-29T13:17:48Z</time>
      </trkpt>
      <trkpt lat="45.31187" lon="5.22966">
        <ele>428.4</ele>
        <time>2019-03-29T13:18:17Z</time>
      </trkpt>
      <trkpt lat="45.31168" lon="5.22964">
        <ele>430.81</ele>
        <time>2019-03-29T13:18:38Z</time>
      </trkpt>
      <trkpt lat="45.31152" lon="5.22973">
        <ele>433.21</ele>
        <time>2019-03-29T13:19:04Z</time>
      </trkpt>
      <trkpt lat="45.31144" lon="5.2298">
        <ele>434.65</ele>
        <time>2019-03-29T13:19:32Z</time>
      </trkpt>
      <trkpt lat="45.31137" lon="5.22984">
        <ele>435.61</ele>
        <time>2019-03-29T13:19:58Z</time>
      </trkpt>
      <trkpt lat="45.31123" lon="5.22991">
        <ele>438.5</ele>
        <time>2019-03-29T13:20:18Z</time>
      </trkpt>
      <trkpt lat="45.3112" lon="5.22993">
        <ele>439.46</ele>
        <time>2019-03-29T13:20:50Z</time>
      </trkpt>
      <trkpt lat="45.31113" lon="5.22994">
        <ele>440.9</ele>
        <time>2019-03-29T13:22:18Z</time>
      </trkpt>
      <trkpt lat="45.31104" lon="5.22994">
        <ele>442.34</ele>
        <time>2019-03-29T13:22:40Z</time>
      </trkpt>
      <trkpt lat="45.31087" lon="5.22994">
        <ele>444.27</ele>
        <time>2019-03-29T13:23:00Z</time>
      </trkpt>
      <trkpt lat="45.31068" lon="5.23004">
        <ele>447.15</ele>
        <time>2019-03-29T13:23:25Z</time>
      </trkpt>
      <trkpt lat="45.31061" lon="5.2301">
        <ele>448.11</ele>
        <time>2019-03-29T13:23:53Z</time>
      </trkpt>
      <trkpt lat="45.31053" lon="5.23015">
        <ele>451</ele>
        <time>2019-03-29T13:25:10Z</time>
      </trkpt>
      <trkpt lat="45.31048" lon="5.23023">
        <ele>451.48</ele>
        <time>2019-03-29T13:25:30Z</time>
      </trkpt>
      <trkpt lat="45.31042" lon="5.23038">
        <ele>454.84</ele>
        <time>2019-03-29T13:25:56Z</time>
      </trkpt>
      <trkpt lat="45.3104" lon="5.23044">
        <ele>454.36</ele>
        <time>2019-03-29T13:26:48Z</time>
      </trkpt>
      <trkpt lat="45.31036" lon="5.2306">
        <ele>456.28</ele>
        <time>2019-03-29T13:27:24Z</time>
      </trkpt>
      <trkpt lat="45.31035" lon="5.23064">
        <ele>456.28</ele>
        <time>2019-03-29T13:27:27Z</time>
      </trkpt>
      <trkpt lat="45.31028" lon="5.23085">
        <ele>459.65</ele>
        <time>2019-03-29T13:27:47Z</time>
      </trkpt>
      <trkpt lat="45.31024" lon="5.23101">
        <ele>461.57</ele>
        <time>2019-03-29T13:28:07Z</time>
      </trkpt>
      <trkpt lat="45.3102" lon="5.23112">
        <ele>463.49</ele>
        <time>2019-03-29T13:28:31Z</time>
      </trkpt>
      <trkpt lat="45.31017" lon="5.2313">
        <ele>465.9</ele>
        <time>2019-03-29T13:28:54Z</time>
      </trkpt>
      <trkpt lat="45.31015" lon="5.23144">
        <ele>468.3</ele>
        <time>2019-03-29T13:29:49Z</time>
      </trkpt>
      <trkpt lat="45.31011" lon="5.23163">
        <ele>471.18</ele>
        <time>2019-03-29T13:30:14Z</time>
      </trkpt>
      <trkpt lat="45.3101" lon="5.23181">
        <ele>473.11</ele>
        <time>2019-03-29T13:30:35Z</time>
      </trkpt>
      <trkpt lat="45.31009" lon="5.23186">
        <ele>474.07</ele>
        <time>2019-03-29T13:31:00Z</time>
      </trkpt>
      <trkpt lat="45.31002" lon="5.23219">
        <ele>476.95</ele>
        <time>2019-03-29T13:31:27Z</time>
      </trkpt>
      <trkpt lat="45.31" lon="5.23227">
        <ele>478.39</ele>
        <time>2019-03-29T13:32:12Z</time>
      </trkpt>
      <trkpt lat="45.30992" lon="5.23254">
        <ele>480.8</ele>
        <time>2019-03-29T13:32:37Z</time>
      </trkpt>
      <trkpt lat="45.30988" lon="5.23277">
        <ele>484.16</ele>
        <time>2019-03-29T13:33:03Z</time>
      </trkpt>
      <trkpt lat="45.30984" lon="5.23297">
        <ele>486.08</ele>
        <time>2019-03-29T13:33:44Z</time>
      </trkpt>
      <trkpt lat="45.30979" lon="5.23324">
        <ele>488.97</ele>
        <time>2019-03-29T13:34:09Z</time>
      </trkpt>
      <trkpt lat="45.30978" lon="5.23336">
        <ele>490.89</ele>
        <time>2019-03-29T13:34:47Z</time>
      </trkpt>
      <trkpt lat="45.30972" lon="5.23366">
        <ele>493.77</ele>
        <time>2019-03-29T13:35:14Z</time>
      </trkpt>
      <trkpt lat="45.3097" lon="5.23378">
        <ele>495.22</ele>
        <time>2019-03-29T13:35:45Z</time>
      </trkpt>
      <trkpt lat="45.30964" lon="5.23412">
        <ele>497.62</ele>
        <time>2019-03-29T13:36:21Z</time>
      </trkpt>
      <trkpt lat="45.30958" lon="5.23457">
        <ele>500.5</ele>
        <time>2019-03-29T13:36:57Z</time>
      </trkpt>
      <trkpt lat="45.3095" lon="5.23473">
        <ele>501.95</ele>
        <time>2019-03-29T13:37:28Z</time>
      </trkpt>
      <trkpt lat="45.30936" lon="5.23504">
        <ele>502.91</ele>
        <time>2019-03-29T13:37:50Z</time>
      </trkpt>
      <trkpt lat="45.30909" lon="5.23545">
        <ele>506.27</ele>
        <time>2019-03-29T13:38:07Z</time>
      </trkpt>
      <trkpt lat="45.30882" lon="5.23571">
        <ele>509.64</ele>
        <time>2019-03-29T13:38:21Z</time>
      </trkpt>
      <trkpt lat="45.30869" lon="5.2358">
        <ele>511.56</ele>
        <time>2019-03-29T13:38:27Z</time>
      </trkpt>
      <trkpt lat="45.30852" lon="5.23595">
        <ele>514.92</ele>
        <time>2019-03-29T13:38:36Z</time>
      </trkpt>
      <trkpt lat="45.30835" lon="5.2361">
        <ele>518.29</ele>
        <time>2019-03-29T13:38:46Z</time>
      </trkpt>
      <trkpt lat="45.30827" lon="5.23615">
        <ele>519.25</ele>
        <time>2019-03-29T13:38:50Z</time>
      </trkpt>
      <trkpt lat="45.30809" lon="5.23628">
        <ele>522.61</ele>
        <time>2019-03-29T13:39:00Z</time>
      </trkpt>
      <trkpt lat="45.30791" lon="5.23639">
        <ele>525.5</ele>
        <time>2019-03-29T13:39:09Z</time>
      </trkpt>
      <trkpt lat="45.30771" lon="5.23652">
        <ele>529.34</ele>
        <time>2019-03-29T13:39:19Z</time>
      </trkpt>
      <trkpt lat="45.30746" lon="5.23672">
        <ele>532.71</ele>
        <time>2019-03-29T13:39:33Z</time>
      </trkpt>
      <trkpt lat="45.30726" lon="5.23692">
        <ele>535.11</ele>
        <time>2019-03-29T13:39:45Z</time>
      </trkpt>
      <trkpt lat="45.30711" lon="5.23706">
        <ele>536.07</ele>
        <time>2019-03-29T13:40:05Z</time>
      </trkpt>
      <trkpt lat="45.30698" lon="5.23745">
        <ele>537.51</ele>
        <time>2019-03-29T13:40:31Z</time>
      </trkpt>
      <trkpt lat="45.30682" lon="5.23845">
        <ele>539.44</ele>
        <time>2019-03-29T13:41:02Z</time>
      </trkpt>
      <trkpt lat="45.30665" lon="5.23949">
        <ele>540.88</ele>
        <time>2019-03-29T13:41:28Z</time>
      </trkpt>
      <trkpt lat="45.30638" lon="5.24036">
        <ele>540.88</ele>
        <time>2019-03-29T13:41:54Z</time>
      </trkpt>
      <trkpt lat="45.30583" lon="5.24127">
        <ele>543.28</ele>
        <time>2019-03-29T13:42:24Z</time>
      </trkpt>
      <trkpt lat="45.30511" lon="5.24192">
        <ele>544.24</ele>
        <time>2019-03-29T13:42:54Z</time>
      </trkpt>
      <trkpt lat="45.30452" lon="5.24259">
        <ele>544.24</ele>
        <time>2019-03-29T13:43:23Z</time>
      </trkpt>
      <trkpt lat="45.30431" lon="5.24285">
        <ele>544.24</ele>
        <time>2019-03-29T13:43:44Z</time>
      </trkpt>
      <trkpt lat="45.3043" lon="5.24286">
        <ele>544.72</ele>
        <time>2019-03-29T13:44:59Z</time>
      </trkpt>
      <trkpt lat="45.3038" lon="5.24351">
        <ele>546.65</ele>
        <time>2019-03-29T13:45:24Z</time>
      </trkpt>
      <trkpt lat="45.30315" lon="5.24347">
        <ele>549.53</ele>
        <time>2019-03-29T13:45:46Z</time>
      </trkpt>
      <trkpt lat="45.3024" lon="5.24396">
        <ele>552.9</ele>
        <time>2019-03-29T13:46:12Z</time>
      </trkpt>
      <trkpt lat="45.30205" lon="5.24428">
        <ele>555.3</ele>
        <time>2019-03-29T13:46:25Z</time>
      </trkpt>
      <trkpt lat="45.30177" lon="5.24458">
        <ele>558.18</ele>
        <time>2019-03-29T13:46:38Z</time>
      </trkpt>
      <trkpt lat="45.30143" lon="5.24498">
        <ele>561.55</ele>
        <time>2019-03-29T13:46:55Z</time>
      </trkpt>
      <trkpt lat="45.30117" lon="5.24532">
        <ele>564.91</ele>
        <time>2019-03-29T13:47:09Z</time>
      </trkpt>
      <trkpt lat="45.30103" lon="5.24552">
        <ele>566.83</ele>
        <time>2019-03-29T13:47:17Z</time>
      </trkpt>
      <trkpt lat="45.3006" lon="5.24592">
        <ele>569.72</ele>
        <time>2019-03-29T13:47:37Z</time>
      </trkpt>
      <trkpt lat="45.30017" lon="5.24635">
        <ele>572.12</ele>
        <time>2019-03-29T13:47:58Z</time>
      </trkpt>
      <trkpt lat="45.30025" lon="5.24646">
        <ele>572.6</ele>
        <time>2019-03-29T13:48:04Z</time>
      </trkpt>
      <trkpt lat="45.30119" lon="5.24686">
        <ele>572.12</ele>
        <time>2019-03-29T13:48:32Z</time>
      </trkpt>
      <trkpt lat="45.30123" lon="5.24689">
        <ele>571.64</ele>
        <time>2019-03-29T13:48:33Z</time>
      </trkpt>
      <trkpt lat="45.30126" lon="5.24693">
        <ele>571.64</ele>
        <time>2019-03-29T13:48:34Z</time>
      </trkpt>
      <trkpt lat="45.30129" lon="5.24697">
        <ele>571.64</ele>
        <time>2019-03-29T13:48:35Z</time>
      </trkpt>
      <trkpt lat="45.3013" lon="5.24702">
        <ele>572.12</ele>
        <time>2019-03-29T13:48:36Z</time>
      </trkpt>
      <trkpt lat="45.30129" lon="5.24707">
        <ele>572.12</ele>
        <time>2019-03-29T13:48:37Z</time>
      </trkpt>
      <trkpt lat="45.30129" lon="5.24712">
        <ele>572.12</ele>
        <time>2019-03-29T13:48:38Z</time>
      </trkpt>
      <trkpt lat="45.30128" lon="5.24717">
        <ele>572.12</ele>
        <time>2019-03-29T13:48:39Z</time>
      </trkpt>
      <trkpt lat="45.30126" lon="5.24722">
        <ele>573.08</ele>
        <time>2019-03-29T13:48:40Z</time>
      </trkpt>
      <trkpt lat="45.30125" lon="5.24727">
        <ele>573.08</ele>
        <time>2019-03-29T13:48:41Z</time>
      </trkpt>
      <trkpt lat="45.30101" lon="5.24781">
        <ele>575.97</ele>
        <time>2019-03-29T13:48:54Z</time>
      </trkpt>
      <trkpt lat="45.3008" lon="5.24848">
        <ele>579.33</ele>
        <time>2019-03-29T13:49:12Z</time>
      </trkpt>
      <trkpt lat="45.30058" lon="5.24953">
        <ele>581.73</ele>
        <time>2019-03-29T13:49:39Z</time>
      </trkpt>
      <trkpt lat="45.30022" lon="5.25065">
        <ele>584.62</ele>
        <time>2019-03-29T13:50:07Z</time>
      </trkpt>
      <trkpt lat="45.29999" lon="5.25164">
        <ele>587.98</ele>
        <time>2019-03-29T13:50:31Z</time>
      </trkpt>
      <trkpt lat="45.29972" lon="5.25296">
        <ele>591.35</ele>
        <time>2019-03-29T13:51:03Z</time>
      </trkpt>
      <trkpt lat="45.29962" lon="5.25331">
        <ele>592.79</ele>
        <time>2019-03-29T13:51:24Z</time>
      </trkpt>
      <trkpt lat="45.29956" lon="5.25347">
        <ele>593.27</ele>
        <time>2019-03-29T13:51:49Z</time>
      </trkpt>
      <trkpt lat="45.29954" lon="5.25351">
        <ele>593.27</ele>
        <time>2019-03-29T13:52:23Z</time>
      </trkpt>
      <trkpt lat="45.29954" lon="5.25352">
        <ele>593.27</ele>
        <time>2019-03-29T13:52:30Z</time>
      </trkpt>
      <trkpt lat="45.29951" lon="5.25361">
        <ele>593.27</ele>
        <time>2019-03-29T13:52:35Z</time>
      </trkpt>
      <trkpt lat="45.29947" lon="5.25371">
        <ele>593.75</ele>
        <time>2019-03-29T13:52:39Z</time>
      </trkpt>
      <trkpt lat="45.29939" lon="5.25372">
        <ele>594.23</ele>
        <time>2019-03-29T13:52:44Z</time>
      </trkpt>
      <trkpt lat="45.29928" lon="5.25366">
        <ele>595.19</ele>
        <time>2019-03-29T13:53:03Z</time>
      </trkpt>
      <trkpt lat="45.2993" lon="5.25368">
        <ele>595.67</ele>
        <time>2019-03-29T13:53:10Z</time>
      </trkpt>
      <trkpt lat="45.29943" lon="5.25373">
        <ele>594.23</ele>
        <time>2019-03-29T13:53:17Z</time>
      </trkpt>
      <trkpt lat="45.29923" lon="5.25452">
        <ele>597.12</ele>
        <time>2019-03-29T13:53:37Z</time>
      </trkpt>
      <trkpt lat="45.29896" lon="5.25519">
        <ele>600</ele>
        <time>2019-03-29T13:53:57Z</time>
      </trkpt>
      <trkpt lat="45.29891" lon="5.25531">
        <ele>600.48</ele>
        <time>2019-03-29T13:54:02Z</time>
      </trkpt>
      <trkpt lat="45.29879" lon="5.25529">
        <ele>600</ele>
        <time>2019-03-29T13:54:08Z</time>
      </trkpt>
      <trkpt lat="45.29862" lon="5.25522">
        <ele>598.08</ele>
        <time>2019-03-29T13:54:28Z</time>
      </trkpt>
      <trkpt lat="45.29852" lon="5.25538">
        <ele>594.71</ele>
        <time>2019-03-29T13:55:11Z</time>
      </trkpt>
      <trkpt lat="45.29847" lon="5.25553">
        <ele>591.83</ele>
        <time>2019-03-29T13:55:26Z</time>
      </trkpt>
      <trkpt lat="45.29842" lon="5.25567">
        <ele>588.95</ele>
        <time>2019-03-29T13:55:39Z</time>
      </trkpt>
      <trkpt lat="45.29841" lon="5.25568">
        <ele>588.46</ele>
        <time>2019-03-29T13:55:40Z</time>
      </trkpt>
      <trkpt lat="45.2983" lon="5.25574">
        <ele>586.06</ele>
        <time>2019-03-29T13:55:52Z</time>
      </trkpt>
      <trkpt lat="45.29822" lon="5.25563">
        <ele>583.66</ele>
        <time>2019-03-29T13:56:02Z</time>
      </trkpt>
      <trkpt lat="45.29811" lon="5.25548">
        <ele>581.25</ele>
        <time>2019-03-29T13:56:28Z</time>
      </trkpt>
      <trkpt lat="45.298" lon="5.25545">
        <ele>578.85</ele>
        <time>2019-03-29T13:56:52Z</time>
      </trkpt>
      <trkpt lat="45.29798" lon="5.2555">
        <ele>578.37</ele>
        <time>2019-03-29T13:56:58Z</time>
      </trkpt>
      <trkpt lat="45.29765" lon="5.25583">
        <ele>575.49</ele>
        <time>2019-03-29T13:57:29Z</time>
      </trkpt>
      <trkpt lat="45.29742" lon="5.256">
        <ele>572.6</ele>
        <time>2019-03-29T13:57:52Z</time>
      </trkpt>
      <trkpt lat="45.29732" lon="5.25613">
        <ele>572.12</ele>
        <time>2019-03-29T13:58:15Z</time>
      </trkpt>
      <trkpt lat="45.29722" lon="5.25647">
        <ele>571.64</ele>
        <time>2019-03-29T13:58:39Z</time>
      </trkpt>
      <trkpt lat="45.29719" lon="5.25652">
        <ele>571.64</ele>
        <time>2019-03-29T13:58:43Z</time>
      </trkpt>
      <trkpt lat="45.29694" lon="5.25697">
        <ele>570.2</ele>
        <time>2019-03-29T13:59:12Z</time>
      </trkpt>
      <trkpt lat="45.2968" lon="5.25736">
        <ele>569.24</ele>
        <time>2019-03-29T13:59:45Z</time>
      </trkpt>
      <trkpt lat="45.2968" lon="5.25756">
        <ele>566.35</ele>
        <time>2019-03-29T13:59:57Z</time>
      </trkpt>
      <trkpt lat="45.29674" lon="5.25774">
        <ele>562.99</ele>
        <time>2019-03-29T14:00:14Z</time>
      </trkpt>
      <trkpt lat="45.29668" lon="5.25781">
        <ele>561.55</ele>
        <time>2019-03-29T14:00:29Z</time>
      </trkpt>
      <trkpt lat="45.29647" lon="5.25805">
        <ele>558.18</ele>
        <time>2019-03-29T14:00:53Z</time>
      </trkpt>
      <trkpt lat="45.29638" lon="5.25824">
        <ele>558.66</ele>
        <time>2019-03-29T14:01:21Z</time>
      </trkpt>
      <trkpt lat="45.29631" lon="5.2585">
        <ele>561.55</ele>
        <time>2019-03-29T14:01:46Z</time>
      </trkpt>
      <trkpt lat="45.29629" lon="5.25862">
        <ele>562.99</ele>
        <time>2019-03-29T14:01:56Z</time>
      </trkpt>
      <trkpt lat="45.29626" lon="5.25862">
        <ele>563.47</ele>
        <time>2019-03-29T14:02:35Z</time>
      </trkpt>
      <trkpt lat="45.29627" lon="5.2586">
        <ele>563.47</ele>
        <time>2019-03-29T14:03:42Z</time>
      </trkpt>
      <trkpt lat="45.29623" lon="5.25853">
        <ele>562.99</ele>
        <time>2019-03-29T14:04:03Z</time>
      </trkpt>
      <trkpt lat="45.29621" lon="5.2583">
        <ele>565.87</ele>
        <time>2019-03-29T14:04:28Z</time>
      </trkpt>
      <trkpt lat="45.29616" lon="5.25817">
        <ele>567.8</ele>
        <time>2019-03-29T14:04:56Z</time>
      </trkpt>
      <trkpt lat="45.29611" lon="5.25808">
        <ele>569.24</ele>
        <time>2019-03-29T14:05:23Z</time>
      </trkpt>
      <trkpt lat="45.2961" lon="5.25806">
        <ele>569.72</ele>
        <time>2019-03-29T14:05:25Z</time>
      </trkpt>
      <trkpt lat="45.296" lon="5.25789">
        <ele>572.6</ele>
        <time>2019-03-29T14:05:54Z</time>
      </trkpt>
      <trkpt lat="45.29592" lon="5.2578">
        <ele>574.04</ele>
        <time>2019-03-29T14:06:19Z</time>
      </trkpt>
      <trkpt lat="45.29591" lon="5.2578">
        <ele>573.56</ele>
        <time>2019-03-29T14:07:41Z</time>
      </trkpt>
      <trkpt lat="45.29589" lon="5.25784">
        <ele>573.56</ele>
        <time>2019-03-29T14:08:07Z</time>
      </trkpt>
      <trkpt lat="45.29567" lon="5.25793">
        <ele>572.12</ele>
        <time>2019-03-29T14:08:18Z</time>
      </trkpt>
      <trkpt lat="45.29529" lon="5.2584">
        <ele>570.2</ele>
        <time>2019-03-29T14:08:38Z</time>
      </trkpt>
      <trkpt lat="45.29502" lon="5.25883">
        <ele>568.76</ele>
        <time>2019-03-29T14:08:52Z</time>
      </trkpt>
      <trkpt lat="45.29482" lon="5.25888">
        <ele>570.2</ele>
        <time>2019-03-29T14:09:02Z</time>
      </trkpt>
      <trkpt lat="45.29448" lon="5.25923">
        <ele>567.32</ele>
        <time>2019-03-29T14:09:21Z</time>
      </trkpt>
      <trkpt lat="45.29428" lon="5.25951">
        <ele>565.39</ele>
        <time>2019-03-29T14:09:33Z</time>
      </trkpt>
      <trkpt lat="45.29423" lon="5.25956">
        <ele>565.39</ele>
        <time>2019-03-29T14:09:56Z</time>
      </trkpt>
      <trkpt lat="45.29411" lon="5.25969">
        <ele>563.47</ele>
        <time>2019-03-29T14:10:23Z</time>
      </trkpt>
      <trkpt lat="45.294" lon="5.25987">
        <ele>560.11</ele>
        <time>2019-03-29T14:10:37Z</time>
      </trkpt>
      <trkpt lat="45.29392" lon="5.25995">
        <ele>558.18</ele>
        <time>2019-03-29T14:10:47Z</time>
      </trkpt>
      <trkpt lat="45.29384" lon="5.26002">
        <ele>556.74</ele>
        <time>2019-03-29T14:10:55Z</time>
      </trkpt>
      <trkpt lat="45.29364" lon="5.26018">
        <ele>553.86</ele>
        <time>2019-03-29T14:11:15Z</time>
      </trkpt>
      <trkpt lat="45.29351" lon="5.26028">
        <ele>551.45</ele>
        <time>2019-03-29T14:11:28Z</time>
      </trkpt>
      <trkpt lat="45.29348" lon="5.26031">
        <ele>551.45</ele>
        <time>2019-03-29T14:11:31Z</time>
      </trkpt>
      <trkpt lat="45.2934" lon="5.26035">
        <ele>550.01</ele>
        <time>2019-03-29T14:11:38Z</time>
      </trkpt>
      <trkpt lat="45.2933" lon="5.26044">
        <ele>548.09</ele>
        <time>2019-03-29T14:11:47Z</time>
      </trkpt>
      <trkpt lat="45.29318" lon="5.26062">
        <ele>545.2</ele>
        <time>2019-03-29T14:12:00Z</time>
      </trkpt>
      <trkpt lat="45.29299" lon="5.26072">
        <ele>544.72</ele>
        <time>2019-03-29T14:12:23Z</time>
      </trkpt>
      <trkpt lat="45.29287" lon="5.26094">
        <ele>545.69</ele>
        <time>2019-03-29T14:12:57Z</time>
      </trkpt>
      <trkpt lat="45.29282" lon="5.26104">
        <ele>545.69</ele>
        <time>2019-03-29T14:13:06Z</time>
      </trkpt>
      <trkpt lat="45.29275" lon="5.26123">
        <ele>544.72</ele>
        <time>2019-03-29T14:13:34Z</time>
      </trkpt>
      <trkpt lat="45.29267" lon="5.26146">
        <ele>546.17</ele>
        <time>2019-03-29T14:13:53Z</time>
      </trkpt>
      <trkpt lat="45.29264" lon="5.26151">
        <ele>546.17</ele>
        <time>2019-03-29T14:13:57Z</time>
      </trkpt>
      <trkpt lat="45.29261" lon="5.26153">
        <ele>546.17</ele>
        <time>2019-03-29T14:14:00Z</time>
      </trkpt>
      <trkpt lat="45.29244" lon="5.26177">
        <ele>548.57</ele>
        <time>2019-03-29T14:14:24Z</time>
      </trkpt>
      <trkpt lat="45.29243" lon="5.26188">
        <ele>547.61</ele>
        <time>2019-03-29T14:14:40Z</time>
      </trkpt>
      <trkpt lat="45.29224" lon="5.26209">
        <ele>550.01</ele>
        <time>2019-03-29T14:14:50Z</time>
      </trkpt>
      <trkpt lat="45.2921" lon="5.26225">
        <ele>551.45</ele>
        <time>2019-03-29T14:14:58Z</time>
      </trkpt>
      <trkpt lat="45.29206" lon="5.26237">
        <ele>551.93</ele>
        <time>2019-03-29T14:15:03Z</time>
      </trkpt>
      <trkpt lat="45.29197" lon="5.2627">
        <ele>551.45</ele>
        <time>2019-03-29T14:15:17Z</time>
      </trkpt>
      <trkpt lat="45.29194" lon="5.26288">
        <ele>552.9</ele>
        <time>2019-03-29T14:15:24Z</time>
      </trkpt>
      <trkpt lat="45.29193" lon="5.26294">
        <ele>553.38</ele>
        <time>2019-03-29T14:15:26Z</time>
      </trkpt>
      <trkpt lat="45.29193" lon="5.26297">
        <ele>553.86</ele>
        <time>2019-03-29T14:15:27Z</time>
      </trkpt>
      <trkpt lat="45.2919" lon="5.26332">
        <ele>557.22</ele>
        <time>2019-03-29T14:15:38Z</time>
      </trkpt>
      <trkpt lat="45.2919" lon="5.26356">
        <ele>559.62</ele>
        <time>2019-03-29T14:15:57Z</time>
      </trkpt>
      <trkpt lat="45.29194" lon="5.26376">
        <ele>562.51</ele>
        <time>2019-03-29T14:16:24Z</time>
      </trkpt>
      <trkpt lat="45.29199" lon="5.2639">
        <ele>564.91</ele>
        <time>2019-03-29T14:17:15Z</time>
      </trkpt>
      <trkpt lat="45.29201" lon="5.26414">
        <ele>567.8</ele>
        <time>2019-03-29T14:17:36Z</time>
      </trkpt>
      <trkpt lat="45.29201" lon="5.26427">
        <ele>568.28</ele>
        <time>2019-03-29T14:17:45Z</time>
      </trkpt>
      <trkpt lat="45.29198" lon="5.26448">
        <ele>568.76</ele>
        <time>2019-03-29T14:18:07Z</time>
      </trkpt>
      <trkpt lat="45.29184" lon="5.26467">
        <ele>566.35</ele>
        <time>2019-03-29T14:18:30Z</time>
      </trkpt>
      <trkpt lat="45.29173" lon="5.26459">
        <ele>563.47</ele>
        <time>2019-03-29T14:18:52Z</time>
      </trkpt>
      <trkpt lat="45.29168" lon="5.26459">
        <ele>562.03</ele>
        <time>2019-03-29T14:18:56Z</time>
      </trkpt>
      <trkpt lat="45.29154" lon="5.26453">
        <ele>560.11</ele>
        <time>2019-03-29T14:19:14Z</time>
      </trkpt>
      <trkpt lat="45.29152" lon="5.26452">
        <ele>610.09</ele>
        <time>2019-03-29T14:14:41Z</time>
      </trkpt>
      <trkpt lat="45.29152" lon="5.26452">
        <ele>585.58</ele>
        <time>2019-03-29T14:14:44Z</time>
      </trkpt>
      <trkpt lat="45.29056" lon="5.26259">
        <ele>585.58</ele>
        <time>2019-03-29T14:33:33Z</time>
      </trkpt>
      <trkpt lat="45.29049" lon="5.26271">
        <ele>588.46</ele>
        <time>2019-03-29T14:37:36Z</time>
      </trkpt>
      <trkpt lat="45.29039" lon="5.26268">
        <ele>589.43</ele>
        <time>2019-03-29T14:38:06Z</time>
      </trkpt>
      <trkpt lat="45.29039" lon="5.26264">
        <ele>592.79</ele>
        <time>2019-03-29T14:38:34Z</time>
      </trkpt>
      <trkpt lat="45.29028" lon="5.26258">
        <ele>595.67</ele>
        <time>2019-03-29T14:38:54Z</time>
      </trkpt>
      <trkpt lat="45.29027" lon="5.26257">
        <ele>596.15</ele>
        <time>2019-03-29T14:39:28Z</time>
      </trkpt>
      <trkpt lat="45.29022" lon="5.26261">
        <ele>595.67</ele>
        <time>2019-03-29T14:43:20Z</time>
      </trkpt>
      <trkpt lat="45.2901" lon="5.26277">
        <ele>599.04</ele>
        <time>2019-03-29T14:43:38Z</time>
      </trkpt>
      <trkpt lat="45.29001" lon="5.26288">
        <ele>602.4</ele>
        <time>2019-03-29T14:43:54Z</time>
      </trkpt>
      <trkpt lat="45.28999" lon="5.26279">
        <ele>602.4</ele>
        <time>2019-03-29T14:44:09Z</time>
      </trkpt>
      <trkpt lat="45.2899" lon="5.26216">
        <ele>600</ele>
        <time>2019-03-29T14:44:33Z</time>
      </trkpt>
      <trkpt lat="45.28988" lon="5.26209">
        <ele>599.04</ele>
        <time>2019-03-29T14:44:35Z</time>
      </trkpt>
      <trkpt lat="45.28963" lon="5.26167">
        <ele>598.56</ele>
        <time>2019-03-29T14:44:53Z</time>
      </trkpt>
      <trkpt lat="45.2893" lon="5.26123">
        <ele>598.56</ele>
        <time>2019-03-29T14:45:13Z</time>
      </trkpt>
      <trkpt lat="45.28894" lon="5.26088">
        <ele>598.56</ele>
        <time>2019-03-29T14:45:34Z</time>
      </trkpt>
      <trkpt lat="45.28865" lon="5.26057">
        <ele>597.12</ele>
        <time>2019-03-29T14:45:58Z</time>
      </trkpt>
      <trkpt lat="45.28864" lon="5.26054">
        <ele>597.6</ele>
        <time>2019-03-29T14:46:01Z</time>
      </trkpt>
      <trkpt lat="45.28855" lon="5.26034">
        <ele>596.64</ele>
        <time>2019-03-29T14:46:22Z</time>
      </trkpt>
      <trkpt lat="45.28854" lon="5.26032">
        <ele>597.12</ele>
        <time>2019-03-29T14:46:23Z</time>
      </trkpt>
      <trkpt lat="45.28852" lon="5.26029">
        <ele>596.64</ele>
        <time>2019-03-29T14:46:26Z</time>
      </trkpt>
      <trkpt lat="45.28849" lon="5.26026">
        <ele>597.12</ele>
        <time>2019-03-29T14:46:29Z</time>
      </trkpt>
      <trkpt lat="45.28845" lon="5.26023">
        <ele>597.12</ele>
        <time>2019-03-29T14:46:33Z</time>
      </trkpt>
      <trkpt lat="45.28841" lon="5.26013">
        <ele>597.12</ele>
        <time>2019-03-29T14:46:40Z</time>
      </trkpt>
      <trkpt lat="45.2884" lon="5.2601">
        <ele>597.12</ele>
        <time>2019-03-29T14:46:42Z</time>
      </trkpt>
      <trkpt lat="45.28827" lon="5.25985">
        <ele>594.23</ele>
        <time>2019-03-29T14:47:06Z</time>
      </trkpt>
      <trkpt lat="45.28825" lon="5.2597">
        <ele>591.35</ele>
        <time>2019-03-29T14:47:22Z</time>
      </trkpt>
      <trkpt lat="45.28823" lon="5.25967">
        <ele>591.35</ele>
        <time>2019-03-29T14:47:46Z</time>
      </trkpt>
      <trkpt lat="45.28818" lon="5.25959">
        <ele>590.87</ele>
        <time>2019-03-29T14:50:04Z</time>
      </trkpt>
      <trkpt lat="45.28805" lon="5.25957">
        <ele>592.79</ele>
        <time>2019-03-29T14:50:39Z</time>
      </trkpt>
      <trkpt lat="45.28791" lon="5.2595">
        <ele>596.15</ele>
        <time>2019-03-29T14:51:01Z</time>
      </trkpt>
      <trkpt lat="45.28791" lon="5.25947">
        <ele>596.64</ele>
        <time>2019-03-29T14:51:44Z</time>
      </trkpt>
      <trkpt lat="45.28783" lon="5.25936">
        <ele>598.56</ele>
        <time>2019-03-29T14:52:08Z</time>
      </trkpt>
      <trkpt lat="45.28783" lon="5.25936">
        <ele>597.6</ele>
        <time>2019-03-29T14:53:58Z</time>
      </trkpt>
      <trkpt lat="45.28773" lon="5.25924">
        <ele>597.6</ele>
        <time>2019-03-29T14:55:50Z</time>
      </trkpt>
      <trkpt lat="45.28758" lon="5.25914">
        <ele>600.48</ele>
        <time>2019-03-29T14:56:14Z</time>
      </trkpt>
      <trkpt lat="45.28755" lon="5.25909">
        <ele>600.96</ele>
        <time>2019-03-29T14:57:07Z</time>
      </trkpt>
      <trkpt lat="45.28748" lon="5.25898">
        <ele>603.36</ele>
        <time>2019-03-29T14:57:43Z</time>
      </trkpt>
      <trkpt lat="45.28745" lon="5.25899">
        <ele>603.85</ele>
        <time>2019-03-29T14:58:24Z</time>
      </trkpt>
      <trkpt lat="45.28743" lon="5.25893">
        <ele>604.81</ele>
        <time>2019-03-29T14:59:02Z</time>
      </trkpt>
      <trkpt lat="45.28731" lon="5.25884">
        <ele>608.17</ele>
        <time>2019-03-29T15:00:05Z</time>
      </trkpt>
      <trkpt lat="45.28724" lon="5.25875">
        <ele>611.54</ele>
        <time>2019-03-29T15:00:19Z</time>
      </trkpt>
      <trkpt lat="45.2872" lon="5.25866">
        <ele>612.5</ele>
        <time>2019-03-29T15:00:56Z</time>
      </trkpt>
      <trkpt lat="45.287" lon="5.25836">
        <ele>615.38</ele>
        <time>2019-03-29T15:01:19Z</time>
      </trkpt>
      <trkpt lat="45.28697" lon="5.25833">
        <ele>615.86</ele>
        <time>2019-03-29T15:01:52Z</time>
      </trkpt>
      <trkpt lat="45.28686" lon="5.25822">
        <ele>615.86</ele>
        <time>2019-03-29T15:03:13Z</time>
      </trkpt>
      <trkpt lat="45.28685" lon="5.25821">
        <ele>616.34</ele>
        <time>2019-03-29T15:03:15Z</time>
      </trkpt>
      <trkpt lat="45.28672" lon="5.25804">
        <ele>616.82</ele>
        <time>2019-03-29T15:03:25Z</time>
      </trkpt>
      <trkpt lat="45.28671" lon="5.25799">
        <ele>616.34</ele>
        <time>2019-03-29T15:04:02Z</time>
      </trkpt>
      <trkpt lat="45.28671" lon="5.25799">
        <ele>616.34</ele>
        <time>2019-03-29T15:04:04Z</time>
      </trkpt>
      <trkpt lat="45.28637" lon="5.25759">
        <ele>618.26</ele>
        <time>2019-03-29T15:04:25Z</time>
      </trkpt>
      <trkpt lat="45.28627" lon="5.25746">
        <ele>617.78</ele>
        <time>2019-03-29T15:04:31Z</time>
      </trkpt>
      <trkpt lat="45.28585" lon="5.25699">
        <ele>620.67</ele>
        <time>2019-03-29T15:04:58Z</time>
      </trkpt>
      <trkpt lat="45.28551" lon="5.25653">
        <ele>622.59</ele>
        <time>2019-03-29T15:05:19Z</time>
      </trkpt>
      <trkpt lat="45.2855" lon="5.25652">
        <ele>622.59</ele>
        <time>2019-03-29T15:05:20Z</time>
      </trkpt>
      <trkpt lat="45.28517" lon="5.25616">
        <ele>624.99</ele>
        <time>2019-03-29T15:05:38Z</time>
      </trkpt>
      <trkpt lat="45.28497" lon="5.25586">
        <ele>624.99</ele>
        <time>2019-03-29T15:05:51Z</time>
      </trkpt>
      <trkpt lat="45.28485" lon="5.25572">
        <ele>624.99</ele>
        <time>2019-03-29T15:05:57Z</time>
      </trkpt>
      <trkpt lat="45.28474" lon="5.25556">
        <ele>624.51</ele>
        <time>2019-03-29T15:06:05Z</time>
      </trkpt>
      <trkpt lat="45.2847" lon="5.25549">
        <ele>624.99</ele>
        <time>2019-03-29T15:06:08Z</time>
      </trkpt>
      <trkpt lat="45.28461" lon="5.25536">
        <ele>624.99</ele>
        <time>2019-03-29T15:06:13Z</time>
      </trkpt>
      <trkpt lat="45.28424" lon="5.25487">
        <ele>624.51</ele>
        <time>2019-03-29T15:06:33Z</time>
      </trkpt>
      <trkpt lat="45.28392" lon="5.25445">
        <ele>623.55</ele>
        <time>2019-03-29T15:06:52Z</time>
      </trkpt>
      <trkpt lat="45.28381" lon="5.2543">
        <ele>623.07</ele>
        <time>2019-03-29T15:07:10Z</time>
      </trkpt>
      <trkpt lat="45.2838" lon="5.25432">
        <ele>623.07</ele>
        <time>2019-03-29T15:07:13Z</time>
      </trkpt>
      <trkpt lat="45.2837" lon="5.25449">
        <ele>623.55</ele>
        <time>2019-03-29T15:07:19Z</time>
      </trkpt>
      <trkpt lat="45.28361" lon="5.25458">
        <ele>623.55</ele>
        <time>2019-03-29T15:07:24Z</time>
      </trkpt>
      <trkpt lat="45.28348" lon="5.25476">
        <ele>624.51</ele>
        <time>2019-03-29T15:07:34Z</time>
      </trkpt>
      <trkpt lat="45.28344" lon="5.25484">
        <ele>624.99</ele>
        <time>2019-03-29T15:07:38Z</time>
      </trkpt>
      <trkpt lat="45.28339" lon="5.25496">
        <ele>625.47</ele>
        <time>2019-03-29T15:07:54Z</time>
      </trkpt>
      <trkpt lat="45.28334" lon="5.25506">
        <ele>625.96</ele>
        <time>2019-03-29T15:07:59Z</time>
      </trkpt>
      <trkpt lat="45.28321" lon="5.25521">
        <ele>626.44</ele>
        <time>2019-03-29T15:08:15Z</time>
      </trkpt>
      <trkpt lat="45.28307" lon="5.25551">
        <ele>626.92</ele>
        <time>2019-03-29T15:08:31Z</time>
      </trkpt>
      <trkpt lat="45.283" lon="5.25562">
        <ele>627.4</ele>
        <time>2019-03-29T15:08:35Z</time>
      </trkpt>
      <trkpt lat="45.28297" lon="5.25574">
        <ele>628.36</ele>
        <time>2019-03-29T15:08:39Z</time>
      </trkpt>
      <trkpt lat="45.28274" lon="5.25604">
        <ele>629.32</ele>
        <time>2019-03-29T15:08:52Z</time>
      </trkpt>
      <trkpt lat="45.28243" lon="5.2564">
        <ele>631.24</ele>
        <time>2019-03-29T15:09:10Z</time>
      </trkpt>
      <trkpt lat="45.28228" lon="5.25656">
        <ele>631.24</ele>
        <time>2019-03-29T15:09:17Z</time>
      </trkpt>
      <trkpt lat="45.28221" lon="5.25662">
        <ele>631.24</ele>
        <time>2019-03-29T15:09:21Z</time>
      </trkpt>
      <trkpt lat="45.28203" lon="5.25673">
        <ele>631.24</ele>
        <time>2019-03-29T15:09:31Z</time>
      </trkpt>
      <trkpt lat="45.28185" lon="5.25689">
        <ele>630.76</ele>
        <time>2019-03-29T15:09:54Z</time>
      </trkpt>
      <trkpt lat="45.2815" lon="5.25725">
        <ele>631.24</ele>
        <time>2019-03-29T15:10:11Z</time>
      </trkpt>
      <trkpt lat="45.28142" lon="5.25749">
        <ele>631.24</ele>
        <time>2019-03-29T15:10:18Z</time>
      </trkpt>
      <trkpt lat="45.28138" lon="5.25759">
        <ele>631.24</ele>
        <time>2019-03-29T15:10:23Z</time>
      </trkpt>
      <trkpt lat="45.28134" lon="5.25773">
        <ele>631.24</ele>
        <time>2019-03-29T15:10:28Z</time>
      </trkpt>
      <trkpt lat="45.28129" lon="5.25786">
        <ele>631.72</ele>
        <time>2019-03-29T15:10:32Z</time>
      </trkpt>
      <trkpt lat="45.28124" lon="5.25799">
        <ele>631.72</ele>
        <time>2019-03-29T15:10:36Z</time>
      </trkpt>
      <trkpt lat="45.28121" lon="5.25805">
        <ele>631.72</ele>
        <time>2019-03-29T15:10:38Z</time>
      </trkpt>
      <trkpt lat="45.28089" lon="5.25856">
        <ele>631.24</ele>
        <time>2019-03-29T15:10:56Z</time>
      </trkpt>
      <trkpt lat="45.28046" lon="5.25903">
        <ele>630.28</ele>
        <time>2019-03-29T15:11:14Z</time>
      </trkpt>
      <trkpt lat="45.28035" lon="5.25915">
        <ele>630.28</ele>
        <time>2019-03-29T15:11:20Z</time>
      </trkpt>
      <trkpt lat="45.28033" lon="5.25919">
        <ele>630.28</ele>
        <time>2019-03-29T15:11:22Z</time>
      </trkpt>
      <trkpt lat="45.28028" lon="5.25927">
        <ele>630.28</ele>
        <time>2019-03-29T15:11:26Z</time>
      </trkpt>
      <trkpt lat="45.28023" lon="5.25936">
        <ele>630.28</ele>
        <time>2019-03-29T15:11:30Z</time>
      </trkpt>
      <trkpt lat="45.28016" lon="5.25952">
        <ele>630.28</ele>
        <time>2019-03-29T15:11:39Z</time>
      </trkpt>
      <trkpt lat="45.2805" lon="5.25973">
        <ele>628.36</ele>
        <time>2019-03-29T15:12:00Z</time>
      </trkpt>
      <trkpt lat="45.28091" lon="5.25991">
        <ele>627.88</ele>
        <time>2019-03-29T15:12:19Z</time>
      </trkpt>
      <trkpt lat="45.28126" lon="5.26004">
        <ele>627.4</ele>
        <time>2019-03-29T15:12:38Z</time>
      </trkpt>
      <trkpt lat="45.28166" lon="5.26023">
        <ele>627.4</ele>
        <time>2019-03-29T15:12:55Z</time>
      </trkpt>
      <trkpt lat="45.28215" lon="5.26045">
        <ele>627.4</ele>
        <time>2019-03-29T15:13:16Z</time>
      </trkpt>
      <trkpt lat="45.2824" lon="5.26058">
        <ele>628.36</ele>
        <time>2019-03-29T15:13:28Z</time>
      </trkpt>
      <trkpt lat="45.28267" lon="5.2607">
        <ele>629.32</ele>
        <time>2019-03-29T15:13:40Z</time>
      </trkpt>
      <trkpt lat="45.28309" lon="5.26089">
        <ele>629.32</ele>
        <time>2019-03-29T15:13:57Z</time>
      </trkpt>
      <trkpt lat="45.28337" lon="5.26104">
        <ele>626.44</ele>
        <time>2019-03-29T15:14:11Z</time>
      </trkpt>
      <trkpt lat="45.28344" lon="5.26104">
        <ele>625.96</ele>
        <time>2019-03-29T15:14:16Z</time>
      </trkpt>
      <trkpt lat="45.2835" lon="5.26107">
        <ele>625.96</ele>
        <time>2019-03-29T15:14:19Z</time>
      </trkpt>
      <trkpt lat="45.28373" lon="5.26122">
        <ele>626.44</ele>
        <time>2019-03-29T15:14:38Z</time>
      </trkpt>
      <trkpt lat="45.28384" lon="5.26135">
        <ele>626.92</ele>
        <time>2019-03-29T15:14:45Z</time>
      </trkpt>
      <trkpt lat="45.28387" lon="5.26139">
        <ele>627.4</ele>
        <time>2019-03-29T15:14:47Z</time>
      </trkpt>
      <trkpt lat="45.28389" lon="5.26143">
        <ele>627.4</ele>
        <time>2019-03-29T15:14:49Z</time>
      </trkpt>
      <trkpt lat="45.28416" lon="5.26165">
        <ele>627.88</ele>
        <time>2019-03-29T15:15:03Z</time>
      </trkpt>
      <trkpt lat="45.28434" lon="5.2618">
        <ele>628.36</ele>
        <time>2019-03-29T15:15:11Z</time>
      </trkpt>
      <trkpt lat="45.28438" lon="5.26187">
        <ele>628.84</ele>
        <time>2019-03-29T15:15:15Z</time>
      </trkpt>
      <trkpt lat="45.28448" lon="5.26193">
        <ele>628.84</ele>
        <time>2019-03-29T15:15:19Z</time>
      </trkpt>
      <trkpt lat="45.2846" lon="5.26204">
        <ele>628.84</ele>
        <time>2019-03-29T15:15:25Z</time>
      </trkpt>
      <trkpt lat="45.28506" lon="5.26252">
        <ele>626.44</ele>
        <time>2019-03-29T15:15:42Z</time>
      </trkpt>
      <trkpt lat="45.28535" lon="5.26282">
        <ele>625.96</ele>
        <time>2019-03-29T15:15:57Z</time>
      </trkpt>
      <trkpt lat="45.28572" lon="5.26313">
        <ele>624.99</ele>
        <time>2019-03-29T15:16:12Z</time>
      </trkpt>
      <trkpt lat="45.28578" lon="5.26321">
        <ele>625.47</ele>
        <time>2019-03-29T15:16:16Z</time>
      </trkpt>
      <trkpt lat="45.28599" lon="5.26351">
        <ele>625.47</ele>
        <time>2019-03-29T15:16:33Z</time>
      </trkpt>
      <trkpt lat="45.28636" lon="5.26379">
        <ele>626.44</ele>
        <time>2019-03-29T15:16:46Z</time>
      </trkpt>
      <trkpt lat="45.2864" lon="5.26382">
        <ele>626.44</ele>
        <time>2019-03-29T15:16:49Z</time>
      </trkpt>
      <trkpt lat="45.28651" lon="5.26395">
        <ele>625.96</ele>
        <time>2019-03-29T15:17:18Z</time>
      </trkpt>
      <trkpt lat="45.28653" lon="5.26398">
        <ele>625.96</ele>
        <time>2019-03-29T15:17:38Z</time>
      </trkpt>
      <trkpt lat="45.28647" lon="5.26432">
        <ele>625.96</ele>
        <time>2019-03-29T15:17:50Z</time>
      </trkpt>
      <trkpt lat="45.28641" lon="5.26497">
        <ele>623.07</ele>
        <time>2019-03-29T15:18:07Z</time>
      </trkpt>
      <trkpt lat="45.28641" lon="5.26538">
        <ele>622.59</ele>
        <time>2019-03-29T15:18:16Z</time>
      </trkpt>
      <trkpt lat="45.28648" lon="5.26565">
        <ele>622.11</ele>
        <time>2019-03-29T15:18:22Z</time>
      </trkpt>
      <trkpt lat="45.28677" lon="5.26606">
        <ele>622.11</ele>
        <time>2019-03-29T15:18:37Z</time>
      </trkpt>
      <trkpt lat="45.28708" lon="5.26662">
        <ele>621.63</ele>
        <time>2019-03-29T15:18:56Z</time>
      </trkpt>
      <trkpt lat="45.28738" lon="5.26723">
        <ele>622.59</ele>
        <time>2019-03-29T15:19:15Z</time>
      </trkpt>
      <trkpt lat="45.28769" lon="5.2678">
        <ele>625.96</ele>
        <time>2019-03-29T15:19:33Z</time>
      </trkpt>
      <trkpt lat="45.28802" lon="5.26844">
        <ele>627.88</ele>
        <time>2019-03-29T15:19:55Z</time>
      </trkpt>
      <trkpt lat="45.28809" lon="5.26859">
        <ele>627.4</ele>
        <time>2019-03-29T15:20:13Z</time>
      </trkpt>
      <trkpt lat="45.28807" lon="5.2686">
        <ele>626.92</ele>
        <time>2019-03-29T15:20:54Z</time>
      </trkpt>
      <trkpt lat="45.28806" lon="5.2686">
        <ele>627.4</ele>
        <time>2019-03-29T15:21:00Z</time>
      </trkpt>
      <trkpt lat="45.28806" lon="5.26859">
        <ele>622.11</ele>
        <time>2019-03-29T15:21:02Z</time>
      </trkpt>
      <trkpt lat="45.28804" lon="5.26856">
        <ele>664.41</ele>
        <time>2019-03-29T15:13:31Z</time>
      </trkpt>
      <trkpt lat="45.28804" lon="5.26856">
        <ele>642.3</ele>
        <time>2019-03-29T15:13:38Z</time>
      </trkpt>
      <trkpt lat="45.28804" lon="5.26856">
        <ele>645.18</ele>
        <time>2019-03-29T15:13:43Z</time>
      </trkpt>
      <trkpt lat="45.28808" lon="5.26853">
        <ele>645.18</ele>
        <time>2019-03-29T15:22:47Z</time>
      </trkpt>
      <trkpt lat="45.28804" lon="5.26855">
        <ele>641.82</ele>
        <time>2019-03-29T15:23:10Z</time>
      </trkpt>
      <trkpt lat="45.28804" lon="5.26856">
        <ele>639.89</ele>
        <time>2019-03-29T15:23:13Z</time>
      </trkpt>
      <trkpt lat="45.28804" lon="5.26856">
        <ele>638.45</ele>
        <time>2019-03-29T15:23:16Z</time>
      </trkpt>
      <trkpt lat="45.28804" lon="5.26856">
        <ele>635.09</ele>
        <time>2019-03-29T15:23:22Z</time>
      </trkpt>
      <trkpt lat="45.28804" lon="5.26856">
        <ele>635.09</ele>
        <time>2019-03-29T15:23:23Z</time>
      </trkpt>
      <trkpt lat="45.28804" lon="5.26856">
        <ele>632.2</ele>
        <time>2019-03-29T15:23:33Z</time>
      </trkpt>
      <trkpt lat="45.28805" lon="5.26859">
        <ele>628.84</ele>
        <time>2019-03-29T15:23:46Z</time>
      </trkpt>
      <trkpt lat="45.28802" lon="5.26864">
        <ele>626.92</ele>
        <time>2019-03-29T15:24:13Z</time>
      </trkpt>
      <trkpt lat="45.28801" lon="5.26865">
        <ele>626.92</ele>
        <time>2019-03-29T15:24:29Z</time>
      </trkpt>
      <trkpt lat="45.2878" lon="5.26895">
        <ele>624.99</ele>
        <time>2019-03-29T15:24:50Z</time>
      </trkpt>
      <trkpt lat="45.28772" lon="5.26896">
        <ele>624.51</ele>
        <time>2019-03-29T15:25:02Z</time>
      </trkpt>
      <trkpt lat="45.28766" lon="5.26901">
        <ele>624.03</ele>
        <time>2019-03-29T15:25:06Z</time>
      </trkpt>
      <trkpt lat="45.28748" lon="5.26919">
        <ele>621.15</ele>
        <time>2019-03-29T15:25:24Z</time>
      </trkpt>
      <trkpt lat="45.28722" lon="5.26947">
        <ele>618.75</ele>
        <time>2019-03-29T15:25:40Z</time>
      </trkpt>
      <trkpt lat="45.28707" lon="5.26972">
        <ele>615.38</ele>
        <time>2019-03-29T15:25:52Z</time>
      </trkpt>
      <trkpt lat="45.28706" lon="5.26975">
        <ele>614.9</ele>
        <time>2019-03-29T15:26:04Z</time>
      </trkpt>
      <trkpt lat="45.287" lon="5.2699">
        <ele>613.46</ele>
        <time>2019-03-29T15:26:09Z</time>
      </trkpt>
      <trkpt lat="45.28692" lon="5.27008">
        <ele>610.09</ele>
        <time>2019-03-29T15:26:15Z</time>
      </trkpt>
      <trkpt lat="45.28681" lon="5.2703">
        <ele>608.17</ele>
        <time>2019-03-29T15:26:26Z</time>
      </trkpt>
      <trkpt lat="45.28659" lon="5.27046">
        <ele>604.33</ele>
        <time>2019-03-29T15:26:40Z</time>
      </trkpt>
      <trkpt lat="45.28645" lon="5.27051">
        <ele>601.92</ele>
        <time>2019-03-29T15:26:56Z</time>
      </trkpt>
      <trkpt lat="45.28631" lon="5.27064">
        <ele>599.52</ele>
        <time>2019-03-29T15:27:17Z</time>
      </trkpt>
      <trkpt lat="45.2862" lon="5.27075">
        <ele>597.6</ele>
        <time>2019-03-29T15:27:40Z</time>
      </trkpt>
      <trkpt lat="45.28597" lon="5.27086">
        <ele>595.19</ele>
        <time>2019-03-29T15:28:01Z</time>
      </trkpt>
      <trkpt lat="45.28586" lon="5.27097">
        <ele>593.27</ele>
        <time>2019-03-29T15:28:28Z</time>
      </trkpt>
      <trkpt lat="45.2857" lon="5.27115">
        <ele>589.91</ele>
        <time>2019-03-29T15:28:53Z</time>
      </trkpt>
      <trkpt lat="45.28552" lon="5.27113">
        <ele>587.98</ele>
        <time>2019-03-29T15:29:15Z</time>
      </trkpt>
      <trkpt lat="45.28546" lon="5.27104">
        <ele>587.02</ele>
        <time>2019-03-29T15:29:25Z</time>
      </trkpt>
      <trkpt lat="45.28543" lon="5.27099">
        <ele>586.54</ele>
        <time>2019-03-29T15:29:29Z</time>
      </trkpt>
      <trkpt lat="45.28535" lon="5.27088">
        <ele>585.58</ele>
        <time>2019-03-29T15:29:39Z</time>
      </trkpt>
      <trkpt lat="45.2851" lon="5.27075">
        <ele>585.1</ele>
        <time>2019-03-29T15:30:02Z</time>
      </trkpt>
      <trkpt lat="45.28497" lon="5.27081">
        <ele>585.58</ele>
        <time>2019-03-29T15:30:24Z</time>
      </trkpt>
      <trkpt lat="45.28495" lon="5.27085">
        <ele>585.58</ele>
        <time>2019-03-29T15:30:29Z</time>
      </trkpt>
      <trkpt lat="45.28493" lon="5.27086">
        <ele>585.58</ele>
        <time>2019-03-29T15:30:31Z</time>
      </trkpt>
      <trkpt lat="45.28475" lon="5.271">
        <ele>587.5</ele>
        <time>2019-03-29T15:30:48Z</time>
      </trkpt>
      <trkpt lat="45.28458" lon="5.27126">
        <ele>590.39</ele>
        <time>2019-03-29T15:30:58Z</time>
      </trkpt>
      <trkpt lat="45.28447" lon="5.27165">
        <ele>594.23</ele>
        <time>2019-03-29T15:31:13Z</time>
      </trkpt>
      <trkpt lat="45.28437" lon="5.2719">
        <ele>597.6</ele>
        <time>2019-03-29T15:31:23Z</time>
      </trkpt>
      <trkpt lat="45.28411" lon="5.27198">
        <ele>601.44</ele>
        <time>2019-03-29T15:31:35Z</time>
      </trkpt>
      <trkpt lat="45.28396" lon="5.27209">
        <ele>603.36</ele>
        <time>2019-03-29T15:31:55Z</time>
      </trkpt>
      <trkpt lat="45.28389" lon="5.27218">
        <ele>605.29</ele>
        <time>2019-03-29T15:32:45Z</time>
      </trkpt>
      <trkpt lat="45.28382" lon="5.27228">
        <ele>607.21</ele>
        <time>2019-03-29T15:33:18Z</time>
      </trkpt>
      <trkpt lat="45.28365" lon="5.2725">
        <ele>610.57</ele>
        <time>2019-03-29T15:33:42Z</time>
      </trkpt>
      <trkpt lat="45.28356" lon="5.27256">
        <ele>610.57</ele>
        <time>2019-03-29T15:34:04Z</time>
      </trkpt>
      <trkpt lat="45.28348" lon="5.2726">
        <ele>611.06</ele>
        <time>2019-03-29T15:34:35Z</time>
      </trkpt>
      <trkpt lat="45.28313" lon="5.27291">
        <ele>614.42</ele>
        <time>2019-03-29T15:34:53Z</time>
      </trkpt>
      <trkpt lat="45.28282" lon="5.27312">
        <ele>616.82</ele>
        <time>2019-03-29T15:35:09Z</time>
      </trkpt>
      <trkpt lat="45.28245" lon="5.27314">
        <ele>618.26</ele>
        <time>2019-03-29T15:35:25Z</time>
      </trkpt>
      <trkpt lat="45.28212" lon="5.27308">
        <ele>621.15</ele>
        <time>2019-03-29T15:35:40Z</time>
      </trkpt>
      <trkpt lat="45.28187" lon="5.27293">
        <ele>623.55</ele>
        <time>2019-03-29T15:35:52Z</time>
      </trkpt>
      <trkpt lat="45.28149" lon="5.27257">
        <ele>624.51</ele>
        <time>2019-03-29T15:36:12Z</time>
      </trkpt>
      <trkpt lat="45.28143" lon="5.27252">
        <ele>624.99</ele>
        <time>2019-03-29T15:36:15Z</time>
      </trkpt>
      <trkpt lat="45.28135" lon="5.2724">
        <ele>624.51</ele>
        <time>2019-03-29T15:36:22Z</time>
      </trkpt>
      <trkpt lat="45.28121" lon="5.27231">
        <ele>624.51</ele>
        <time>2019-03-29T15:36:40Z</time>
      </trkpt>
      <trkpt lat="45.28096" lon="5.27226">
        <ele>624.99</ele>
        <time>2019-03-29T15:37:01Z</time>
      </trkpt>
      <trkpt lat="45.28027" lon="5.27227">
        <ele>625.96</ele>
        <time>2019-03-29T15:37:27Z</time>
      </trkpt>
      <trkpt lat="45.28025" lon="5.27227">
        <ele>625.47</ele>
        <time>2019-03-29T15:37:28Z</time>
      </trkpt>
      <trkpt lat="45.27981" lon="5.27198">
        <ele>624.51</ele>
        <time>2019-03-29T15:37:44Z</time>
      </trkpt>
      <trkpt lat="45.27933" lon="5.27181">
        <ele>622.59</ele>
        <time>2019-03-29T15:38:01Z</time>
      </trkpt>
      <trkpt lat="45.27886" lon="5.27155">
        <ele>618.75</ele>
        <time>2019-03-29T15:43:38Z</time>
      </trkpt>
      <trkpt lat="45.27884" lon="5.27154">
        <ele>618.75</ele>
        <time>2019-03-29T15:43:39Z</time>
      </trkpt>
      <trkpt lat="45.27883" lon="5.27152">
        <ele>619.23</ele>
        <time>2019-03-29T15:43:40Z</time>
      </trkpt>
      <trkpt lat="45.27881" lon="5.27149">
        <ele>619.23</ele>
        <time>2019-03-29T15:43:41Z</time>
      </trkpt>
      <trkpt lat="45.27879" lon="5.27147">
        <ele>619.23</ele>
        <time>2019-03-29T15:43:42Z</time>
      </trkpt>
      <trkpt lat="45.27847" lon="5.27119">
        <ele>615.86</ele>
        <time>2019-03-29T15:43:53Z</time>
      </trkpt>
      <trkpt lat="45.27828" lon="5.27095">
        <ele>613.94</ele>
        <time>2019-03-29T15:43:59Z</time>
      </trkpt>
      <trkpt lat="45.27806" lon="5.27077">
        <ele>611.54</ele>
        <time>2019-03-29T15:44:05Z</time>
      </trkpt>
      <trkpt lat="45.27798" lon="5.27074">
        <ele>610.57</ele>
        <time>2019-03-29T15:44:07Z</time>
      </trkpt>
      <trkpt lat="45.27794" lon="5.27073">
        <ele>610.09</ele>
        <time>2019-03-29T15:44:08Z</time>
      </trkpt>
      <trkpt lat="45.27772" lon="5.27064">
        <ele>608.17</ele>
        <time>2019-03-29T15:44:13Z</time>
      </trkpt>
      <trkpt lat="45.27768" lon="5.27062">
        <ele>607.69</ele>
        <time>2019-03-29T15:44:14Z</time>
      </trkpt>
      <trkpt lat="45.27765" lon="5.27058">
        <ele>607.21</ele>
        <time>2019-03-29T15:44:15Z</time>
      </trkpt>
      <trkpt lat="45.27752" lon="5.27042">
        <ele>605.77</ele>
        <time>2019-03-29T15:44:19Z</time>
      </trkpt>
      <trkpt lat="45.27749" lon="5.27037">
        <ele>605.29</ele>
        <time>2019-03-29T15:44:20Z</time>
      </trkpt>
      <trkpt lat="45.27747" lon="5.27032">
        <ele>605.29</ele>
        <time>2019-03-29T15:44:21Z</time>
      </trkpt>
      <trkpt lat="45.27744" lon="5.27027">
        <ele>604.81</ele>
        <time>2019-03-29T15:44:22Z</time>
      </trkpt>
      <trkpt lat="45.27741" lon="5.27021">
        <ele>603.85</ele>
        <time>2019-03-29T15:44:23Z</time>
      </trkpt>
      <trkpt lat="45.27739" lon="5.27015">
        <ele>603.85</ele>
        <time>2019-03-29T15:44:24Z</time>
      </trkpt>
      <trkpt lat="45.27727" lon="5.2698">
        <ele>600</ele>
        <time>2019-03-29T15:44:30Z</time>
      </trkpt>
      <trkpt lat="45.27718" lon="5.26948">
        <ele>596.64</ele>
        <time>2019-03-29T15:44:36Z</time>
      </trkpt>
      <trkpt lat="45.27714" lon="5.26939">
        <ele>596.15</ele>
        <time>2019-03-29T15:44:38Z</time>
      </trkpt>
      <trkpt lat="45.27685" lon="5.26893">
        <ele>592.79</ele>
        <time>2019-03-29T15:44:49Z</time>
      </trkpt>
      <trkpt lat="45.27634" lon="5.26861">
        <ele>589.91</ele>
        <time>2019-03-29T15:45:02Z</time>
      </trkpt>
      <trkpt lat="45.2758" lon="5.2683">
        <ele>586.54</ele>
        <time>2019-03-29T15:45:14Z</time>
      </trkpt>
      <trkpt lat="45.27513" lon="5.26807">
        <ele>583.18</ele>
        <time>2019-03-29T15:45:30Z</time>
      </trkpt>
      <trkpt lat="45.27484" lon="5.26792">
        <ele>580.29</ele>
        <time>2019-03-29T15:45:37Z</time>
      </trkpt>
      <trkpt lat="45.27477" lon="5.26787">
        <ele>579.81</ele>
        <time>2019-03-29T15:45:39Z</time>
      </trkpt>
      <trkpt lat="45.27451" lon="5.26771">
        <ele>576.45</ele>
        <time>2019-03-29T15:45:46Z</time>
      </trkpt>
      <trkpt lat="45.27444" lon="5.26765">
        <ele>575.01</ele>
        <time>2019-03-29T15:45:48Z</time>
      </trkpt>
      <trkpt lat="45.27424" lon="5.26746">
        <ele>571.64</ele>
        <time>2019-03-29T15:45:54Z</time>
      </trkpt>
      <trkpt lat="45.27406" lon="5.26728">
        <ele>567.8</ele>
        <time>2019-03-29T15:45:59Z</time>
      </trkpt>
      <trkpt lat="45.27393" lon="5.26712">
        <ele>564.91</ele>
        <time>2019-03-29T15:46:03Z</time>
      </trkpt>
      <trkpt lat="45.27379" lon="5.26693">
        <ele>561.07</ele>
        <time>2019-03-29T15:46:07Z</time>
      </trkpt>
      <trkpt lat="45.27369" lon="5.26683">
        <ele>558.66</ele>
        <time>2019-03-29T15:46:09Z</time>
      </trkpt>
      <trkpt lat="45.27358" lon="5.26659">
        <ele>555.3</ele>
        <time>2019-03-29T15:46:13Z</time>
      </trkpt>
      <trkpt lat="45.27355" lon="5.26652">
        <ele>554.34</ele>
        <time>2019-03-29T15:46:14Z</time>
      </trkpt>
      <trkpt lat="45.27353" lon="5.26645">
        <ele>553.86</ele>
        <time>2019-03-29T15:46:15Z</time>
      </trkpt>
      <trkpt lat="45.27345" lon="5.2661">
        <ele>549.53</ele>
        <time>2019-03-29T15:46:20Z</time>
      </trkpt>
      <trkpt lat="45.27338" lon="5.26572">
        <ele>547.13</ele>
        <time>2019-03-29T15:46:24Z</time>
      </trkpt>
      <trkpt lat="45.27306" lon="5.26479">
        <ele>550.97</ele>
        <time>2019-03-29T15:57:39Z</time>
      </trkpt>
      <trkpt lat="45.27263" lon="5.26529">
        <ele>543.125366</ele>
        <time>2019-03-29T15:57:56Z</time>
      </trkpt>
      <trkpt lat="45.27165" lon="5.26594">
        <ele>540.325073</ele>
        <time>2019-03-29T15:58:35Z</time>
      </trkpt>
      <trkpt lat="45.27083" lon="5.26635">
        <ele>554.614746</ele>
        <time>2019-03-29T15:58:42Z</time>
      </trkpt>
      <trkpt lat="45.26966" lon="5.26475">
        <ele>574.519592</ele>
        <time>2019-03-29T15:58:43Z</time>
      </trkpt>
      <trkpt lat="45.26891" lon="5.26389">
        <ele>581.414978</ele>
        <time>2019-03-29T15:58:56Z</time>
      </trkpt>
      <trkpt lat="45.26819" lon="5.26299">
        <ele>584.333496</ele>
        <time>2019-03-29T15:58:58Z</time>
      </trkpt>
      <trkpt lat="45.26714" lon="5.26191">
        <ele>589.375061</ele>
        <time>2019-03-29T15:59:12Z</time>
      </trkpt>
      <trkpt lat="45.26649" lon="5.26105">
        <ele>590.575012</ele>
        <time>2019-03-29T15:59:13Z</time>
      </trkpt>
      <trkpt lat="45.26561" lon="5.26014">
        <ele>591.744995</ele>
        <time>2019-03-29T15:59:16Z</time>
      </trkpt>
      <trkpt lat="45.26447" lon="5.26002">
        <ele>589.772827</ele>
        <time>2019-03-29T15:59:17Z</time>
      </trkpt>
      <trkpt lat="45.26416" lon="5.25911">
        <ele>580.936707</ele>
        <time>2019-03-29T15:59:21Z</time>
      </trkpt>
      <trkpt lat="45.26467" lon="5.25831">
        <ele>578.853394</ele>
        <time>2019-03-29T15:59:29Z</time>
      </trkpt>
      <trkpt lat="45.26437" lon="5.25613">
        <ele>559.306274</ele>
        <time>2019-03-29T15:59:30Z</time>
      </trkpt>
      <trkpt lat="45.26431" lon="5.25418">
        <ele>539.039673</ele>
        <time>2019-03-29T15:59:31Z</time>
      </trkpt>
      <trkpt lat="45.26442" lon="5.2524">
        <ele>520.163696</ele>
        <time>2019-03-29T15:59:32Z</time>
      </trkpt>
      <trkpt lat="45.26449" lon="5.25148">
        <ele>516.00415</ele>
        <time>2019-03-29T15:59:33Z</time>
      </trkpt>
      <trkpt lat="45.26392" lon="5.25014">
        <ele>513.412109</ele>
        <time>2019-03-29T15:59:56Z</time>
      </trkpt>
      <trkpt lat="45.26374" lon="5.24953">
        <ele>516.37</ele>
        <time>2019-03-29T16:04:47Z</time>
      </trkpt>
      <trkpt lat="45.26316" lon="5.24863">
        <ele>519.73</ele>
        <time>2019-03-29T16:05:07Z</time>
      </trkpt>
      <trkpt lat="45.26266" lon="5.24836">
        <ele>522.61</ele>
        <time>2019-03-29T16:05:20Z</time>
      </trkpt>
      <trkpt lat="45.26259" lon="5.2483">
        <ele>524.06</ele>
        <time>2019-03-29T16:05:22Z</time>
      </trkpt>
      <trkpt lat="45.26255" lon="5.24826">
        <ele>524.06</ele>
        <time>2019-03-29T16:05:23Z</time>
      </trkpt>
      <trkpt lat="45.2622" lon="5.24789">
        <ele>527.42</ele>
        <time>2019-03-29T16:05:34Z</time>
      </trkpt>
      <trkpt lat="45.26178" lon="5.24742">
        <ele>530.79</ele>
        <time>2019-03-29T16:05:48Z</time>
      </trkpt>
      <trkpt lat="45.26125" lon="5.247">
        <ele>533.67</ele>
        <time>2019-03-29T16:06:04Z</time>
      </trkpt>
      <trkpt lat="45.26077" lon="5.24628">
        <ele>535.11</ele>
        <time>2019-03-29T16:06:22Z</time>
      </trkpt>
      <trkpt lat="45.26074" lon="5.24624">
        <ele>535.59</ele>
        <time>2019-03-29T16:06:23Z</time>
      </trkpt>
      <trkpt lat="45.26071" lon="5.24621">
        <ele>535.59</ele>
        <time>2019-03-29T16:06:24Z</time>
      </trkpt>
      <trkpt lat="45.25996" lon="5.24532">
        <ele>532.23</ele>
        <time>2019-03-29T16:06:45Z</time>
      </trkpt>
      <trkpt lat="45.25978" lon="5.24507">
        <ele>531.75</ele>
        <time>2019-03-29T16:06:50Z</time>
      </trkpt>
      <trkpt lat="45.25944" lon="5.24464">
        <ele>530.3</ele>
        <time>2019-03-29T16:06:59Z</time>
      </trkpt>
      <trkpt lat="45.25908" lon="5.24418">
        <ele>527.42</ele>
        <time>2019-03-29T16:07:09Z</time>
      </trkpt>
      <trkpt lat="45.25898" lon="5.24404">
        <ele>526.46</ele>
        <time>2019-03-29T16:07:12Z</time>
      </trkpt>
      <trkpt lat="45.2589" lon="5.24396">
        <ele>525.5</ele>
        <time>2019-03-29T16:07:14Z</time>
      </trkpt>
      <trkpt lat="45.25884" lon="5.24386">
        <ele>524.54</ele>
        <time>2019-03-29T16:07:16Z</time>
      </trkpt>
      <trkpt lat="45.25844" lon="5.24358">
        <ele>521.65</ele>
        <time>2019-03-29T16:07:31Z</time>
      </trkpt>
      <trkpt lat="45.25821" lon="5.24354">
        <ele>519.73</ele>
        <time>2019-03-29T16:07:54Z</time>
      </trkpt>
      <trkpt lat="45.25818" lon="5.24355">
        <ele>519.73</ele>
        <time>2019-03-29T16:08:17Z</time>
      </trkpt>
      <trkpt lat="45.25816" lon="5.24355">
        <ele>519.73</ele>
        <time>2019-03-29T16:08:18Z</time>
      </trkpt>
      <trkpt lat="45.25781" lon="5.24367">
        <ele>519.25</ele>
        <time>2019-03-29T16:08:30Z</time>
      </trkpt>
      <trkpt lat="45.25777" lon="5.2437">
        <ele>518.77</ele>
        <time>2019-03-29T16:08:31Z</time>
      </trkpt>
      <trkpt lat="45.25774" lon="5.24372">
        <ele>518.29</ele>
        <time>2019-03-29T16:08:32Z</time>
      </trkpt>
      <trkpt lat="45.25727" lon="5.24402">
        <ele>518.29</ele>
        <time>2019-03-29T16:08:45Z</time>
      </trkpt>
      <trkpt lat="45.25725" lon="5.24401">
        <ele>518.29</ele>
        <time>2019-03-29T16:08:46Z</time>
      </trkpt>
      <trkpt lat="45.25723" lon="5.24398">
        <ele>518.29</ele>
        <time>2019-03-29T16:08:47Z</time>
      </trkpt>
      <trkpt lat="45.25722" lon="5.24394">
        <ele>517.81</ele>
        <time>2019-03-29T16:08:48Z</time>
      </trkpt>
      <trkpt lat="45.25722" lon="5.24389">
        <ele>517.33</ele>
        <time>2019-03-29T16:08:49Z</time>
      </trkpt>
      <trkpt lat="45.25723" lon="5.24384">
        <ele>517.33</ele>
        <time>2019-03-29T16:08:50Z</time>
      </trkpt>
      <trkpt lat="45.25725" lon="5.24379">
        <ele>516.85</ele>
        <time>2019-03-29T16:08:51Z</time>
      </trkpt>
      <trkpt lat="45.25727" lon="5.24373">
        <ele>516.37</ele>
        <time>2019-03-29T16:08:52Z</time>
      </trkpt>
      <trkpt lat="45.2574" lon="5.24342">
        <ele>514.44</ele>
        <time>2019-03-29T16:08:57Z</time>
      </trkpt>
      <trkpt lat="45.25763" lon="5.24296">
        <ele>511.56</ele>
        <time>2019-03-29T16:09:04Z</time>
      </trkpt>
      <trkpt lat="45.25796" lon="5.24226">
        <ele>508.19</ele>
        <time>2019-03-29T16:09:14Z</time>
      </trkpt>
      <trkpt lat="45.2584" lon="5.24134">
        <ele>505.79</ele>
        <time>2019-03-29T16:09:32Z</time>
      </trkpt>
      <trkpt lat="45.25839" lon="5.2413">
        <ele>505.79</ele>
        <time>2019-03-29T16:09:33Z</time>
      </trkpt>
      <trkpt lat="45.25837" lon="5.24126">
        <ele>505.31</ele>
        <time>2019-03-29T16:09:34Z</time>
      </trkpt>
      <trkpt lat="45.25835" lon="5.24123">
        <ele>505.31</ele>
        <time>2019-03-29T16:09:35Z</time>
      </trkpt>
      <trkpt lat="45.25834" lon="5.24121">
        <ele>505.31</ele>
        <time>2019-03-29T16:09:36Z</time>
      </trkpt>
      <trkpt lat="45.25832" lon="5.24119">
        <ele>504.83</ele>
        <time>2019-03-29T16:09:37Z</time>
      </trkpt>
      <trkpt lat="45.25829" lon="5.24119">
        <ele>504.83</ele>
        <time>2019-03-29T16:09:38Z</time>
      </trkpt>
      <trkpt lat="45.25827" lon="5.2412">
        <ele>504.83</ele>
        <time>2019-03-29T16:09:39Z</time>
      </trkpt>
      <trkpt lat="45.25824" lon="5.24122">
        <ele>504.83</ele>
        <time>2019-03-29T16:09:40Z</time>
      </trkpt>
      <trkpt lat="45.25822" lon="5.24124">
        <ele>504.83</ele>
        <time>2019-03-29T16:09:41Z</time>
      </trkpt>
      <trkpt lat="45.2582" lon="5.24126">
        <ele>504.83</ele>
        <time>2019-03-29T16:09:42Z</time>
      </trkpt>
      <trkpt lat="45.25818" lon="5.24129">
        <ele>504.83</ele>
        <time>2019-03-29T16:09:43Z</time>
      </trkpt>
      <trkpt lat="45.25762" lon="5.24195">
        <ele>504.83</ele>
        <time>2019-03-29T16:10:07Z</time>
      </trkpt>
      <trkpt lat="45.25691" lon="5.24283">
        <ele>504.83</ele>
        <time>2019-03-29T16:10:32Z</time>
      </trkpt>
      <trkpt lat="45.25613" lon="5.24377">
        <ele>506.75</ele>
        <time>2019-03-29T16:10:58Z</time>
      </trkpt>
      <trkpt lat="45.25528" lon="5.24429">
        <ele>510.12</ele>
        <time>2019-03-29T16:11:22Z</time>
      </trkpt>
      <trkpt lat="45.25445" lon="5.24474">
        <ele>511.08</ele>
        <time>2019-03-29T16:11:48Z</time>
      </trkpt>
      <trkpt lat="45.25438" lon="5.24492">
        <ele>510.6</ele>
        <time>2019-03-29T16:11:55Z</time>
      </trkpt>
      <trkpt lat="45.25438" lon="5.24494">
        <ele>510.12</ele>
        <time>2019-03-29T16:12:08Z</time>
      </trkpt>
      <trkpt lat="45.25438" lon="5.24494">
        <ele>513</ele>
        <time>2019-03-31T08:20:48Z</time>
      </trkpt>
      <trkpt lat="45.25438" lon="5.24494">
        <ele>397.16</ele>
        <time>2019-03-31T08:20:49Z</time>
      </trkpt>
      <trkpt lat="45.25438" lon="5.24494">
        <ele>396.68</ele>
        <time>2019-03-31T08:20:52Z</time>
      </trkpt>
      <trkpt lat="45.25438" lon="5.24494">
        <ele>513</ele>
        <time>2019-03-31T08:22:36Z</time>
      </trkpt>
      <trkpt lat="45.25438" lon="5.24494">
        <ele>395.24</ele>
        <time>2019-03-31T08:23:15Z</time>
      </trkpt>
    </trkseg>
  </trk>
</gpx>